Darstellungsparameter: Aktuell verwendete Einstellungen:
Skalierung der Graphiken ... ?
xyx+y,   Skalierungsfaktor:      Skalierung: Modus: x, Faktor: 1
Darstellungszeitraum ... ?
Vom - - bis: - -   Zeitraum: 10.08.2016 - 14.08.2016
Min/Max/Avg-Anzeige ... ?
Zeige MMA aktuell
Zeige MMA Monat
Zeige MMA alles
Zeige --A aktuell
Zeige --A Monat
Zeige --A alles
Keine MMA-Anzeige
MMA:
Keine MMA-Graphiken
MMA-Basis: 10.08.2016 - 14.08.2016
Quicknavigation für Darstellung... ?
Tage:      1T, 2T, 3T, 5T -1T -2T -3T -5T +1T +2T +3T +5T
Wochen: 1W, 2W, 3W -1W -2W -3W +1W +2W +3W
Monate: 1M, 3M, 6M -1M -3M -6M +1M +3M +6M
Jahre:    1J, 3J, 5J, 10J -1J -3J -5J -10J +1J +3J +5J +10J
Nutze für die Darstellung ... ?
Originaldaten oder Mittelwerte auf ...
Stundenbasis Tagesbasis Wochenbasis
Monatsbasis Jahresbasis      Datenbasis: Original-Daten
Darstellen als:
Statistik (Auto) Statistik J:M      Darstellung:
Zur Graphik,    zurück zur Übersicht aller Sensoren.
 
Tabellarische Datenbersicht: ?
 
Sensor: Nr:Datum:Temp:Feuchte:Taupunkt:
Aussen-T/F 1 10-08-2016 00:00:00 12.6 C 84 % 9.97 C
2 10-08-2016 00:05:00 12.5 C 85 % 10.05 C
3 10-08-2016 00:10:00 12.4 C 85 % 9.95 C
4 10-08-2016 00:15:00 12.3 C 86 % 10.03 C
5 10-08-2016 00:20:00 12.3 C 85 % 9.85 C
6 10-08-2016 00:25:00 12.2 C 86 % 9.93 C
7 10-08-2016 00:30:00 12.1 C 86 % 9.83 C
8 10-08-2016 00:35:00 12.1 C 86 % 9.83 C
9 10-08-2016 00:40:00 12 C 86 % 9.73 C
10 10-08-2016 00:45:00 11.9 C 85 % 9.46 C
11 10-08-2016 00:50:00 11.8 C 86 % 9.54 C
12 10-08-2016 00:55:00 11.8 C 86 % 9.54 C
13 10-08-2016 01:00:00 11.8 C 86 % 9.54 C
14 10-08-2016 01:05:00 11.7 C 86 % 9.44 C
15 10-08-2016 01:10:00 11.7 C 86 % 9.44 C
16 10-08-2016 01:15:00 11.6 C 86 % 9.34 C
17 10-08-2016 01:20:00 11.5 C 86 % 9.24 C
18 10-08-2016 01:25:00 11.4 C 86 % 9.14 C
19 10-08-2016 01:30:00 11.4 C 87 % 9.32 C
20 10-08-2016 01:35:00 11.3 C 87 % 9.22 C
21 10-08-2016 01:40:00 11.2 C 87 % 9.12 C
22 10-08-2016 01:45:00 11.2 C 87 % 9.12 C
23 10-08-2016 01:50:00 11.1 C 87 % 9.02 C
24 10-08-2016 01:55:00 10.9 C 87 % 8.82 C
25 10-08-2016 02:00:00 10.8 C 87 % 8.73 C
Sensor: Nr:Datum:Temp:Feuchte:Taupunkt:
Aussen-T/F 26 10-08-2016 02:05:00 10.7 C 88 % 8.8 C
27 10-08-2016 02:10:00 10.6 C 88 % 8.7 C
28 10-08-2016 02:15:00 10.5 C 88 % 8.6 C
29 10-08-2016 02:20:00 10.3 C 89 % 8.57 C
30 10-08-2016 02:25:00 10.3 C 89 % 8.57 C
31 10-08-2016 02:30:00 10.2 C 89 % 8.47 C
32 10-08-2016 02:35:00 10.2 C 90 % 8.64 C
33 10-08-2016 02:40:00 10.2 C 90 % 8.64 C
34 10-08-2016 02:45:00 10.2 C 91 % 8.8 C
35 10-08-2016 02:50:00 10.2 C 91 % 8.8 C
36 10-08-2016 02:55:00 10.2 C 90 % 8.64 C
37 10-08-2016 03:00:00 10.1 C 90 % 8.54 C
38 10-08-2016 03:05:00 10.1 C 91 % 8.7 C
39 10-08-2016 03:10:00 10 C 91 % 8.6 C
40 10-08-2016 03:15:00 9.9 C 91 % 8.5 C
41 10-08-2016 03:20:00 9.9 C 91 % 8.5 C
42 10-08-2016 03:25:00 9.8 C 91 % 8.4 C
43 10-08-2016 03:30:00 9.8 C 91 % 8.4 C
44 10-08-2016 03:35:00 9.8 C 91 % 8.4 C
45 10-08-2016 03:40:00 9.8 C 91 % 8.4 C
46 10-08-2016 03:45:00 9.8 C 92 % 8.56 C
47 10-08-2016 03:50:00 9.8 C 92 % 8.56 C
48 10-08-2016 03:55:00 9.8 C 92 % 8.56 C
49 10-08-2016 04:00:00 9.9 C 93 % 8.82 C
50 10-08-2016 04:05:00 10 C 93 % 8.92 C
Sensor: Nr:Datum:Temp:Feuchte:Taupunkt:
Aussen-T/F 51 10-08-2016 04:10:00 10 C 93 % 8.92 C
52 10-08-2016 04:15:00 10.1 C 93 % 9.02 C
53 10-08-2016 04:20:00 10.2 C 93 % 9.12 C
54 10-08-2016 04:25:00 10.2 C 93 % 9.12 C
55 10-08-2016 04:30:00 10.2 C 92 % 8.96 C
56 10-08-2016 04:35:00 10.2 C 92 % 8.96 C
57 10-08-2016 04:40:00 10.2 C 93 % 9.12 C
58 10-08-2016 04:45:00 10.3 C 93 % 9.22 C
59 10-08-2016 04:50:00 10.3 C 93 % 9.22 C
60 10-08-2016 04:55:00 10.3 C 93 % 9.22 C
61 10-08-2016 05:00:00 10.3 C 93 % 9.22 C
62 10-08-2016 05:05:00 10.4 C 93 % 9.32 C
63 10-08-2016 05:10:00 10.4 C 92 % 9.16 C
64 10-08-2016 05:15:00 10.4 C 92 % 9.16 C
65 10-08-2016 05:20:00 10.4 C 92 % 9.16 C
66 10-08-2016 05:25:00 10.4 C 92 % 9.16 C
67 10-08-2016 05:30:00 10.4 C 92 % 9.16 C
68 10-08-2016 05:35:00 10.4 C 92 % 9.16 C
69 10-08-2016 05:40:00 10.4 C 92 % 9.16 C
70 10-08-2016 05:45:00 10.4 C 92 % 9.16 C
71 10-08-2016 05:50:00 10.4 C 92 % 9.16 C
72 10-08-2016 05:55:00 10.4 C 92 % 9.16 C
73 10-08-2016 06:00:00 10.4 C 92 % 9.16 C
74 10-08-2016 06:05:00 10.4 C 92 % 9.16 C
75 10-08-2016 06:10:00 10.3 C 92 % 9.06 C
Sensor: Nr:Datum:Temp:Feuchte:Taupunkt:
Aussen-T/F 76 10-08-2016 06:15:00 10.3 C 92 % 9.06 C
77 10-08-2016 06:20:00 10.3 C 92 % 9.06 C
78 10-08-2016 06:25:00 10.3 C 92 % 9.06 C
79 10-08-2016 06:30:00 10.3 C 92 % 9.06 C
80 10-08-2016 06:35:00 10.3 C 93 % 9.22 C
81 10-08-2016 06:40:00 10.3 C 93 % 9.22 C
82 10-08-2016 06:45:00 10.3 C 93 % 9.22 C
83 10-08-2016 06:50:00 10.3 C 93 % 9.22 C
84 10-08-2016 06:55:00 10.3 C 93 % 9.22 C
85 10-08-2016 07:00:00 10.3 C 93 % 9.22 C
86 10-08-2016 07:05:00 10.4 C 93 % 9.32 C
87 10-08-2016 07:10:00 10.4 C 93 % 9.32 C
88 10-08-2016 07:15:00 10.5 C 93 % 9.42 C
89 10-08-2016 07:20:00 10.5 C 93 % 9.42 C
90 10-08-2016 07:25:00 10.6 C 93 % 9.52 C
91 10-08-2016 07:30:00 10.6 C 93 % 9.52 C
92 10-08-2016 07:35:00 10.6 C 93 % 9.52 C
93 10-08-2016 07:40:00 10.7 C 93 % 9.62 C
94 10-08-2016 07:45:00 10.7 C 93 % 9.62 C
95 10-08-2016 07:50:00 10.8 C 93 % 9.71 C
96 10-08-2016 07:55:00 10.9 C 93 % 9.81 C
97 10-08-2016 08:00:00 10.9 C 92 % 9.65 C
98 10-08-2016 08:05:00 11 C 92 % 9.75 C
99 10-08-2016 08:10:00 11.1 C 92 % 9.85 C
100 10-08-2016 08:15:00 11.2 C 92 % 9.95 C
Sensor: Nr:Datum:Temp:Feuchte:Taupunkt:
Aussen-T/F 101 10-08-2016 08:20:00 11.2 C 92 % 9.95 C
102 10-08-2016 08:25:00 11.4 C 92 % 10.15 C
103 10-08-2016 08:30:00 11.5 C 91 % 10.08 C
104 10-08-2016 08:35:00 11.7 C 90 % 10.12 C
105 10-08-2016 08:40:00 11.8 C 90 % 10.21 C
106 10-08-2016 08:45:00 11.8 C 89 % 10.05 C
107 10-08-2016 08:50:00 11.9 C 90 % 10.31 C
108 10-08-2016 08:55:00 12.1 C 90 % 10.51 C
109 10-08-2016 09:00:00 12.2 C 89 % 10.44 C
110 10-08-2016 09:05:00 12.3 C 89 % 10.54 C
111 10-08-2016 09:10:00 12.4 C 88 % 10.47 C
112 10-08-2016 09:15:00 12.7 C 87 % 10.59 C
113 10-08-2016 09:20:00 12.8 C 87 % 10.69 C
114 10-08-2016 09:25:00 13.1 C 87 % 10.99 C
115 10-08-2016 09:30:00 13.3 C 86 % 11.01 C
116 10-08-2016 09:35:00 13.4 C 84 % 10.75 C
117 10-08-2016 09:40:00 13.6 C 83 % 10.77 C
118 10-08-2016 09:45:00 13.6 C 84 % 10.95 C
119 10-08-2016 09:50:00 13.6 C 83 % 10.77 C
120 10-08-2016 09:55:00 13.6 C 83 % 10.77 C
121 10-08-2016 10:00:00 13.6 C 83 % 10.77 C
122 10-08-2016 10:05:00 13.6 C 82 % 10.59 C
123 10-08-2016 10:10:00 13.5 C 83 % 10.67 C
124 10-08-2016 10:15:00 13.4 C 82 % 10.39 C
125 10-08-2016 10:20:00 13.3 C 82 % 10.3 C
Sensor: Nr:Datum:Temp:Feuchte:Taupunkt:
Aussen-T/F 126 10-08-2016 10:25:00 12.9 C 83 % 10.09 C
127 10-08-2016 10:30:00 12.6 C 84 % 9.97 C
128 10-08-2016 10:35:00 12.2 C 86 % 9.93 C
129 10-08-2016 10:40:00 11.9 C 87 % 9.81 C
130 10-08-2016 10:45:00 11.7 C 87 % 9.61 C
131 10-08-2016 10:50:00 11.5 C 88 % 9.58 C
132 10-08-2016 10:55:00 11.4 C 89 % 9.65 C
133 10-08-2016 11:00:00 11.3 C 90 % 9.72 C
134 10-08-2016 11:05:00 11.3 C 90 % 9.72 C
135 10-08-2016 11:10:00 11.3 C 91 % 9.89 C
136 10-08-2016 11:15:00 11.4 C 92 % 10.15 C
137 10-08-2016 11:20:00 11.6 C 92 % 10.35 C
138 10-08-2016 11:25:00 11.7 C 92 % 10.44 C
139 10-08-2016 11:30:00 11.6 C 90 % 10.02 C
140 10-08-2016 11:35:00 11.6 C 90 % 10.02 C
141 10-08-2016 11:40:00 11.8 C 91 % 10.38 C
142 10-08-2016 11:45:00 11.9 C 91 % 10.48 C
143 10-08-2016 11:50:00 12 C 91 % 10.58 C
144 10-08-2016 11:55:00 12.2 C 91 % 10.78 C
145 10-08-2016 12:00:00 12.3 C 90 % 10.71 C
146 10-08-2016 12:05:00 12.3 C 89 % 10.54 C
147 10-08-2016 12:10:00 12.3 C 88 % 10.37 C
148 10-08-2016 12:15:00 12.4 C 88 % 10.47 C
149 10-08-2016 12:20:00 12.6 C 88 % 10.67 C
150 10-08-2016 12:25:00 12.8 C 89 % 11.03 C
Sensor: Nr:Datum:Temp:Feuchte:Taupunkt:
Aussen-T/F 151 10-08-2016 12:30:00 12.9 C 87 % 10.79 C
152 10-08-2016 12:35:00 13.1 C 88 % 11.16 C
153 10-08-2016 12:40:00 13.3 C 87 % 11.18 C
154 10-08-2016 12:45:00 13.5 C 87 % 11.38 C
155 10-08-2016 12:50:00 13.7 C 87 % 11.58 C
156 10-08-2016 12:55:00 13.7 C 84 % 11.05 C
157 10-08-2016 13:00:00 13.8 C 85 % 11.32 C
158 10-08-2016 13:05:00 13.9 C 83 % 11.06 C
159 10-08-2016 13:10:00 14.1 C 81 % 10.89 C
160 10-08-2016 13:15:00 14.1 C 80 % 10.71 C
161 10-08-2016 13:20:00 14.1 C 81 % 10.89 C
162 10-08-2016 13:25:00 14.2 C 78 % 10.42 C
163 10-08-2016 13:30:00 14.3 C 80 % 10.9 C
164 10-08-2016 13:35:00 14.4 C 77 % 10.42 C
165 10-08-2016 13:40:00 14.6 C 74 % 10.02 C
166 10-08-2016 13:45:00 14.7 C 74 % 10.12 C
167 10-08-2016 13:50:00 14.8 C 73 % 10.01 C
168 10-08-2016 13:55:00 14.9 C 73 % 10.11 C
169 10-08-2016 14:00:00 15 C 73 % 10.2 C
170 10-08-2016 14:05:00 15.1 C 72 % 10.09 C
171 10-08-2016 14:10:00 15.1 C 72 % 10.09 C
172 10-08-2016 14:15:00 15.2 C 74 % 10.6 C
173 10-08-2016 14:20:00 15.4 C 72 % 10.38 C
174 10-08-2016 14:25:00 15.6 C 72 % 10.57 C
175 10-08-2016 14:30:00 15.6 C 71 % 10.37 C
Sensor: Nr:Datum:Temp:Feuchte:Taupunkt:
Aussen-T/F 176 10-08-2016 14:35:00 15.5 C 73 % 10.69 C
177 10-08-2016 14:40:00 15.5 C 71 % 10.27 C
178 10-08-2016 14:45:00 15.6 C 67 % 9.5 C
179 10-08-2016 14:50:00 15.8 C 69 % 10.13 C
180 10-08-2016 14:55:00 16 C 66 % 9.66 C
181 10-08-2016 15:00:00 16.2 C 65 % 9.62 C
182 10-08-2016 15:05:00 16.1 C 66 % 9.75 C
183 10-08-2016 15:10:00 16.1 C 68 % 10.2 C
184 10-08-2016 15:15:00 16.2 C 66 % 9.85 C
185 10-08-2016 15:20:00 16.4 C 67 % 10.26 C
186 10-08-2016 15:25:00 16.7 C 64 % 9.86 C
187 10-08-2016 15:30:00 16.6 C 63 % 9.53 C
188 10-08-2016 15:35:00 16.6 C 64 % 9.77 C
189 10-08-2016 15:40:00 16.6 C 65 % 10 C
190 10-08-2016 15:45:00 16.8 C 63 % 9.72 C
191 10-08-2016 15:50:00 17.3 C 67 % 11.12 C
192 10-08-2016 15:55:00 17.4 C 62 % 10.05 C
193 10-08-2016 16:00:00 17.2 C 63 % 10.1 C
194 10-08-2016 16:05:00 17.1 C 63 % 10.01 C
195 10-08-2016 16:10:00 17.4 C 62 % 10.05 C
196 10-08-2016 16:15:00 18 C 63 % 10.86 C
197 10-08-2016 16:20:00 18.2 C 59 % 10.06 C
198 10-08-2016 16:25:00 18 C 58 % 9.62 C
199 10-08-2016 16:30:00 17.7 C 58 % 9.34 C
200 10-08-2016 16:35:00 17.9 C 57 % 9.27 C
Sensor: Nr:Datum:Temp:Feuchte:Taupunkt:
Aussen-T/F 201 10-08-2016 16:40:00 18.3 C 58 % 9.9 C
202 10-08-2016 16:45:00 18.8 C 56 % 9.84 C
203 10-08-2016 16:50:00 18.6 C 55 % 9.39 C
204 10-08-2016 16:55:00 18.7 C 49 % 7.78 C
205 10-08-2016 17:00:00 18.7 C 50 % 8.08 C
206 10-08-2016 17:05:00 18.8 C 49 % 7.87 C
207 10-08-2016 17:10:00 18.9 C 47 % 7.35 C
208 10-08-2016 17:15:00 19 C 48 % 7.75 C
209 10-08-2016 17:20:00 19.2 C 49 % 8.24 C
210 10-08-2016 17:25:00 19.2 C 48 % 7.93 C
211 10-08-2016 17:30:00 18.9 C 45 % 6.72 C
212 10-08-2016 17:35:00 18.6 C 48 % 7.39 C
213 10-08-2016 17:40:00 18.7 C 51 % 8.37 C
214 10-08-2016 17:45:00 18.7 C 52 % 8.65 C
215 10-08-2016 17:50:00 18.7 C 53 % 8.93 C
216 10-08-2016 17:55:00 18.3 C 53 % 8.56 C
217 10-08-2016 18:00:00 17.9 C 55 % 8.74 C
218 10-08-2016 18:05:00 17.5 C 56 % 8.63 C
219 10-08-2016 18:10:00 17.4 C 56 % 8.54 C
220 10-08-2016 18:15:00 17.6 C 58 % 9.25 C
221 10-08-2016 18:20:00 17.8 C 56 % 8.91 C
222 10-08-2016 18:25:00 17.8 C 56 % 8.91 C
223 10-08-2016 18:30:00 17.6 C 56 % 8.73 C
224 10-08-2016 18:35:00 17.3 C 56 % 8.45 C
225 10-08-2016 18:40:00 17.3 C 56 % 8.45 C
Sensor: Nr:Datum:Temp:Feuchte:Taupunkt:
Aussen-T/F 226 10-08-2016 18:45:00 17.6 C 56 % 8.73 C
227 10-08-2016 18:50:00 17.7 C 55 % 8.55 C
228 10-08-2016 18:55:00 17.7 C 56 % 8.82 C
229 10-08-2016 19:00:00 17.6 C 56 % 8.73 C
230 10-08-2016 19:05:00 17.4 C 55 % 8.28 C
231 10-08-2016 19:10:00 17.1 C 57 % 8.52 C
232 10-08-2016 19:15:00 16.8 C 60 % 9 C
233 10-08-2016 19:20:00 16.3 C 64 % 9.48 C
234 10-08-2016 19:25:00 15.8 C 66 % 9.47 C
235 10-08-2016 19:30:00 15.4 C 67 % 9.31 C
236 10-08-2016 19:35:00 15.3 C 69 % 9.65 C
237 10-08-2016 19:40:00 15.2 C 68 % 9.34 C
238 10-08-2016 19:45:00 14.9 C 69 % 9.27 C
239 10-08-2016 19:50:00 14.8 C 69 % 9.17 C
240 10-08-2016 19:55:00 14.8 C 69 % 9.17 C
241 10-08-2016 20:00:00 14.8 C 69 % 9.17 C
242 10-08-2016 20:05:00 14.7 C 69 % 9.08 C
243 10-08-2016 20:10:00 14.8 C 69 % 9.17 C
244 10-08-2016 20:15:00 14.8 C 68 % 8.96 C
245 10-08-2016 20:20:00 14.8 C 67 % 8.74 C
246 10-08-2016 20:25:00 14.8 C 67 % 8.74 C
247 10-08-2016 20:30:00 14.7 C 71 % 9.5 C
248 10-08-2016 20:35:00 14.7 C 73 % 9.92 C
249 10-08-2016 20:40:00 14.6 C 75 % 10.22 C
250 10-08-2016 20:45:00 14.4 C 74 % 9.83 C
Sensor: Nr:Datum:Temp:Feuchte:Taupunkt:
Aussen-T/F 251 10-08-2016 20:50:00 14.2 C 72 % 9.23 C
252 10-08-2016 20:55:00 13.9 C 73 % 9.15 C
253 10-08-2016 21:00:00 13.7 C 73 % 8.95 C
254 10-08-2016 21:05:00 13.6 C 71 % 8.45 C
255 10-08-2016 21:10:00 13.5 C 74 % 8.96 C
256 10-08-2016 21:15:00 13.4 C 75 % 9.06 C
257 10-08-2016 21:20:00 13.3 C 76 % 9.16 C
258 10-08-2016 21:25:00 13.1 C 76 % 8.97 C
259 10-08-2016 21:30:00 12.9 C 77 % 8.97 C
260 10-08-2016 21:35:00 12.7 C 78 % 8.97 C
261 10-08-2016 21:40:00 12.5 C 78 % 8.77 C
262 10-08-2016 21:45:00 12.3 C 79 % 8.77 C
263 10-08-2016 21:50:00 12.1 C 79 % 8.57 C
264 10-08-2016 21:55:00 11.9 C 80 % 8.56 C
265 10-08-2016 22:00:00 11.8 C 80 % 8.47 C
266 10-08-2016 22:05:00 11.7 C 81 % 8.55 C
267 10-08-2016 22:10:00 11.6 C 81 % 8.45 C
268 10-08-2016 22:15:00 11.4 C 81 % 8.26 C
269 10-08-2016 22:20:00 11.3 C 82 % 8.34 C
270 10-08-2016 22:25:00 11.3 C 82 % 8.34 C
271 10-08-2016 22:30:00 11.2 C 83 % 8.42 C
272 10-08-2016 22:35:00 11.1 C 83 % 8.33 C
273 10-08-2016 22:40:00 11 C 83 % 8.23 C
274 10-08-2016 22:45:00 10.9 C 84 % 8.31 C
275 10-08-2016 22:50:00 10.8 C 84 % 8.21 C
Sensor: Nr:Datum:Temp:Feuchte:Taupunkt:
Aussen-T/F 276 10-08-2016 22:55:00 10.7 C 84 % 8.11 C
277 10-08-2016 23:00:00 10.6 C 85 % 8.19 C
278 10-08-2016 23:05:00 10.5 C 85 % 8.09 C
279 10-08-2016 23:10:00 10.4 C 85 % 7.99 C
280 10-08-2016 23:15:00 10.3 C 86 % 8.06 C
281 10-08-2016 23:20:00 10.3 C 86 % 8.06 C
282 10-08-2016 23:25:00 10.2 C 86 % 7.97 C
283 10-08-2016 23:30:00 10.2 C 87 % 8.14 C
284 10-08-2016 23:35:00 10.1 C 87 % 8.04 C
285 10-08-2016 23:40:00 10 C 87 % 7.94 C
286 10-08-2016 23:45:00 9.9 C 87 % 7.84 C
287 10-08-2016 23:50:00 9.8 C 87 % 7.74 C
288 10-08-2016 23:55:00 9.7 C 88 % 7.81 C
289 11-08-2016 00:00:00 9.6 C 88 % 7.71 C
290 11-08-2016 00:05:00 9.5 C 88 % 7.61 C
291 11-08-2016 00:10:00 9.4 C 89 % 7.68 C
292 11-08-2016 00:15:00 9.3 C 89 % 7.58 C
293 11-08-2016 00:20:00 9.2 C 89 % 7.48 C
294 11-08-2016 00:25:00 9.2 C 89 % 7.48 C
295 11-08-2016 00:30:00 9.1 C 90 % 7.55 C
296 11-08-2016 00:35:00 9.1 C 90 % 7.55 C
297 11-08-2016 00:40:00 9 C 90 % 7.45 C
298 11-08-2016 00:45:00 8.9 C 90 % 7.35 C
299 11-08-2016 00:50:00 8.8 C 90 % 7.25 C
300 11-08-2016 00:55:00 8.8 C 91 % 7.41 C
Sensor: Nr:Datum:Temp:Feuchte:Taupunkt:
Aussen-T/F 301 11-08-2016 01:00:00 8.7 C 91 % 7.32 C
302 11-08-2016 01:05:00 8.7 C 91 % 7.32 C
303 11-08-2016 01:10:00 8.6 C 91 % 7.22 C
304 11-08-2016 01:15:00 8.6 C 91 % 7.22 C
305 11-08-2016 01:20:00 8.5 C 91 % 7.12 C
306 11-08-2016 01:25:00 8.5 C 91 % 7.12 C
307 11-08-2016 01:30:00 8.4 C 92 % 7.18 C
308 11-08-2016 01:35:00 8.4 C 92 % 7.18 C
309 11-08-2016 01:40:00 8.4 C 92 % 7.18 C
310 11-08-2016 01:45:00 8.3 C 92 % 7.08 C
311 11-08-2016 01:50:00 8.3 C 92 % 7.08 C
312 11-08-2016 01:55:00 8.3 C 92 % 7.08 C
313 11-08-2016 02:00:00 8.3 C 92 % 7.08 C
314 11-08-2016 02:05:00 8.3 C 93 % 7.24 C
315 11-08-2016 02:10:00 8.3 C 93 % 7.24 C
316 11-08-2016 02:15:00 8.3 C 93 % 7.24 C
317 11-08-2016 02:20:00 8.3 C 93 % 7.24 C
318 11-08-2016 02:25:00 8.2 C 93 % 7.14 C
319 11-08-2016 02:30:00 8.2 C 93 % 7.14 C
320 11-08-2016 02:35:00 8.1 C 93 % 7.04 C
321 11-08-2016 02:40:00 8.1 C 93 % 7.04 C
322 11-08-2016 02:45:00 8 C 93 % 6.94 C
323 11-08-2016 02:50:00 8 C 93 % 6.94 C
324 11-08-2016 02:55:00 8 C 93 % 6.94 C
325 11-08-2016 03:00:00 8.1 C 93 % 7.04 C
Sensor: Nr:Datum:Temp:Feuchte:Taupunkt:
Aussen-T/F 326 11-08-2016 03:05:00 8.1 C 94 % 7.19 C
327 11-08-2016 03:10:00 8 C 93 % 6.94 C
328 11-08-2016 03:15:00 7.9 C 93 % 6.84 C
329 11-08-2016 03:20:00 7.9 C 93 % 6.84 C
330 11-08-2016 03:25:00 7.8 C 93 % 6.74 C
331 11-08-2016 03:30:00 7.8 C 93 % 6.74 C
332 11-08-2016 03:35:00 7.8 C 93 % 6.74 C
333 11-08-2016 03:40:00 7.8 C 94 % 6.9 C
334 11-08-2016 03:45:00 7.8 C 94 % 6.9 C
335 11-08-2016 03:50:00 7.7 C 94 % 6.8 C
336 11-08-2016 03:55:00 7.7 C 94 % 6.8 C
337 11-08-2016 04:00:00 7.7 C 94 % 6.8 C
338 11-08-2016 04:05:00 7.6 C 94 % 6.7 C
339 11-08-2016 04:10:00 7.6 C 94 % 6.7 C
340 11-08-2016 04:15:00 7.5 C 94 % 6.6 C
341 11-08-2016 04:20:00 7.4 C 94 % 6.5 C
342 11-08-2016 04:25:00 7.4 C 94 % 6.5 C
343 11-08-2016 04:30:00 7.3 C 94 % 6.4 C
344 11-08-2016 04:35:00 7.3 C 94 % 6.4 C
345 11-08-2016 04:40:00 7.3 C 94 % 6.4 C
346 11-08-2016 04:45:00 7.3 C 94 % 6.4 C
347 11-08-2016 04:50:00 7.3 C 94 % 6.4 C
348 11-08-2016 04:55:00 7.3 C 94 % 6.4 C
349 11-08-2016 05:00:00 7.2 C 94 % 6.3 C
350 11-08-2016 05:05:00 7.2 C 94 % 6.3 C
Sensor: Nr:Datum:Temp:Feuchte:Taupunkt:
Aussen-T/F 351 11-08-2016 05:10:00 7.1 C 94 % 6.2 C
352 11-08-2016 05:15:00 7.1 C 94 % 6.2 C
353 11-08-2016 05:20:00 7.1 C 94 % 6.2 C
354 11-08-2016 05:25:00 7.1 C 94 % 6.2 C
355 11-08-2016 05:30:00 7.1 C 94 % 6.2 C
356 11-08-2016 05:35:00 7.1 C 94 % 6.2 C
357 11-08-2016 05:40:00 7 C 94 % 6.1 C
358 11-08-2016 05:45:00 7 C 94 % 6.1 C
359 11-08-2016 05:50:00 6.9 C 95 % 6.16 C
360 11-08-2016 05:55:00 7 C 95 % 6.26 C
361 11-08-2016 06:00:00 7 C 95 % 6.26 C
362 11-08-2016 06:05:00 6.9 C 95 % 6.16 C
363 11-08-2016 06:10:00 6.9 C 95 % 6.16 C
364 11-08-2016 06:15:00 6.9 C 95 % 6.16 C
365 11-08-2016 06:20:00 6.9 C 95 % 6.16 C
366 11-08-2016 06:25:00 6.9 C 95 % 6.16 C
367 11-08-2016 06:30:00 6.9 C 95 % 6.16 C
368 11-08-2016 06:35:00 6.9 C 95 % 6.16 C
369 11-08-2016 06:40:00 6.9 C 95 % 6.16 C
370 11-08-2016 06:45:00 6.9 C 95 % 6.16 C
371 11-08-2016 06:50:00 6.9 C 95 % 6.16 C
372 11-08-2016 06:55:00 6.8 C 95 % 6.06 C
373 11-08-2016 07:00:00 6.8 C 95 % 6.06 C
374 11-08-2016 07:05:00 6.9 C 95 % 6.16 C
375 11-08-2016 07:10:00 6.9 C 95 % 6.16 C
Sensor: Nr:Datum:Temp:Feuchte:Taupunkt:
Aussen-T/F 376 11-08-2016 07:15:00 7 C 95 % 6.26 C
377 11-08-2016 07:20:00 7 C 95 % 6.26 C
378 11-08-2016 07:25:00 7.1 C 95 % 6.35 C
379 11-08-2016 07:30:00 7.1 C 95 % 6.35 C
380 11-08-2016 07:35:00 7.2 C 95 % 6.45 C
381 11-08-2016 07:40:00 7.3 C 95 % 6.55 C
382 11-08-2016 07:45:00 7.4 C 96 % 6.8 C
383 11-08-2016 07:50:00 7.6 C 96 % 7 C
384 11-08-2016 07:55:00 7.7 C 96 % 7.1 C
385 11-08-2016 08:00:00 7.8 C 96 % 7.2 C
386 11-08-2016 08:05:00 7.9 C 96 % 7.3 C
387 11-08-2016 08:10:00 8.1 C 96 % 7.5 C
388 11-08-2016 08:15:00 8.3 C 96 % 7.7 C
389 11-08-2016 08:20:00 8.5 C 96 % 7.9 C
390 11-08-2016 08:25:00 8.7 C 96 % 8.1 C
391 11-08-2016 08:30:00 8.8 C 96 % 8.2 C
392 11-08-2016 08:35:00 9 C 96 % 8.4 C
393 11-08-2016 08:40:00 9.2 C 96 % 8.6 C
394 11-08-2016 08:45:00 9.3 C 95 % 8.54 C
395 11-08-2016 08:50:00 9.5 C 95 % 8.74 C
396 11-08-2016 08:55:00 9.6 C 95 % 8.84 C
397 11-08-2016 09:00:00 9.7 C 95 % 8.94 C
398 11-08-2016 09:05:00 9.8 C 94 % 8.88 C
399 11-08-2016 09:10:00 9.9 C 94 % 8.98 C
400 11-08-2016 09:15:00 10.1 C 93 % 9.02 C
Sensor: Nr:Datum:Temp:Feuchte:Taupunkt:
Aussen-T/F 401 11-08-2016 09:20:00 10.2 C 92 % 8.96 C
402 11-08-2016 09:25:00 10.3 C 92 % 9.06 C
403 11-08-2016 09:30:00 10.6 C 92 % 9.36 C
404 11-08-2016 09:35:00 10.7 C 91 % 9.29 C
405 11-08-2016 09:40:00 10.9 C 91 % 9.49 C
406 11-08-2016 09:45:00 11.2 C 90 % 9.62 C
407 11-08-2016 09:50:00 11.4 C 89 % 9.65 C
408 11-08-2016 09:55:00 11.7 C 89 % 9.95 C
409 11-08-2016 10:00:00 11.8 C 88 % 9.88 C
410 11-08-2016 10:05:00 11.9 C 88 % 9.98 C
411 11-08-2016 10:10:00 12 C 88 % 10.08 C
412 11-08-2016 10:15:00 12.1 C 87 % 10 C
413 11-08-2016 10:20:00 12.2 C 87 % 10.1 C
414 11-08-2016 10:25:00 12.2 C 87 % 10.1 C
415 11-08-2016 10:30:00 12.3 C 86 % 10.03 C
416 11-08-2016 10:35:00 12.6 C 85 % 10.15 C
417 11-08-2016 10:40:00 12.8 C 85 % 10.34 C
418 11-08-2016 10:45:00 13.1 C 82 % 10.1 C
419 11-08-2016 10:50:00 13.3 C 82 % 10.3 C
420 11-08-2016 10:55:00 13.6 C 81 % 10.4 C
421 11-08-2016 11:00:00 13.8 C 79 % 10.22 C
422 11-08-2016 11:05:00 14 C 79 % 10.42 C
423 11-08-2016 11:10:00 14.1 C 76 % 9.94 C
424 11-08-2016 11:15:00 14.2 C 75 % 9.84 C
425 11-08-2016 11:20:00 14.4 C 72 % 9.42 C
Sensor: Nr:Datum:Temp:Feuchte:Taupunkt:
Aussen-T/F 426 11-08-2016 11:25:00 14.5 C 71 % 9.31 C
427 11-08-2016 11:30:00 14.7 C 71 % 9.5 C
428 11-08-2016 11:35:00 14.9 C 74 % 10.31 C
429 11-08-2016 11:40:00 15 C 71 % 9.79 C
430 11-08-2016 11:45:00 15.1 C 67 % 9.02 C
431 11-08-2016 11:50:00 15.1 C 67 % 9.02 C
432 11-08-2016 11:55:00 15.2 C 65 % 8.67 C
433 11-08-2016 12:00:00 15.2 C 68 % 9.34 C
434 11-08-2016 12:05:00 15.3 C 63 % 8.31 C
435 11-08-2016 12:10:00 15.5 C 66 % 9.18 C
436 11-08-2016 12:15:00 15.7 C 63 % 8.68 C
437 11-08-2016 12:20:00 15.9 C 65 % 9.34 C
438 11-08-2016 12:25:00 16.2 C 60 % 8.43 C
439 11-08-2016 12:30:00 16.4 C 59 % 8.38 C
440 11-08-2016 12:35:00 16.6 C 58 % 8.31 C
441 11-08-2016 12:40:00 16.6 C 59 % 8.56 C
442 11-08-2016 12:45:00 16.7 C 60 % 8.9 C
443 11-08-2016 12:50:00 16.8 C 61 % 9.24 C
444 11-08-2016 12:55:00 16.8 C 59 % 8.75 C
445 11-08-2016 13:00:00 17 C 60 % 9.19 C
446 11-08-2016 13:05:00 17.1 C 63 % 10.01 C
447 11-08-2016 13:10:00 17.2 C 60 % 9.37 C
448 11-08-2016 13:15:00 17.3 C 59 % 9.22 C
449 11-08-2016 13:20:00 17.5 C 59 % 9.41 C
450 11-08-2016 13:25:00 17.5 C 60 % 9.66 C
Sensor: Nr:Datum:Temp:Feuchte:Taupunkt:
Aussen-T/F 451 11-08-2016 13:30:00 17.5 C 60 % 9.66 C
452 11-08-2016 13:35:00 17.5 C 63 % 10.38 C
453 11-08-2016 13:40:00 17.6 C 62 % 10.24 C
454 11-08-2016 13:45:00 17.5 C 66 % 11.08 C
455 11-08-2016 13:50:00 17.6 C 67 % 11.4 C
456 11-08-2016 13:55:00 17.6 C 66 % 11.18 C
457 11-08-2016 14:00:00 17.7 C 66 % 11.27 C
458 11-08-2016 14:05:00 17.8 C 63 % 10.67 C
459 11-08-2016 14:10:00 17.9 C 62 % 10.52 C
460 11-08-2016 14:15:00 17.9 C 60 % 10.03 C
461 11-08-2016 14:20:00 17.9 C 60 % 10.03 C
462 11-08-2016 14:25:00 17.9 C 58 % 9.53 C
463 11-08-2016 14:30:00 18 C 59 % 9.88 C
464 11-08-2016 14:35:00 18 C 59 % 9.88 C
465 11-08-2016 14:40:00 18.1 C 60 % 10.22 C
466 11-08-2016 14:45:00 18.1 C 61 % 10.47 C
467 11-08-2016 14:50:00 18.1 C 60 % 10.22 C
468 11-08-2016 14:55:00 18.1 C 59 % 9.97 C
469 11-08-2016 15:00:00 18.1 C 61 % 10.47 C
470 11-08-2016 15:05:00 18.1 C 59 % 9.97 C
471 11-08-2016 15:10:00 18.2 C 60 % 10.31 C
472 11-08-2016 15:15:00 18.3 C 59 % 10.16 C
473 11-08-2016 15:20:00 18.4 C 58 % 9.99 C
474 11-08-2016 15:25:00 18.4 C 58 % 9.99 C
475 11-08-2016 15:30:00 18.5 C 57 % 9.83 C
Sensor: Nr:Datum:Temp:Feuchte:Taupunkt:
Aussen-T/F 476 11-08-2016 15:35:00 18.4 C 57 % 9.74 C
477 11-08-2016 15:40:00 18.3 C 58 % 9.9 C
478 11-08-2016 15:45:00 18.3 C 58 % 9.9 C
479 11-08-2016 15:50:00 18.3 C 62 % 10.9 C
480 11-08-2016 15:55:00 18.3 C 58 % 9.9 C
481 11-08-2016 16:00:00 18.3 C 58 % 9.9 C
482 11-08-2016 16:05:00 18.3 C 60 % 10.41 C
483 11-08-2016 16:10:00 18.3 C 60 % 10.41 C
484 11-08-2016 16:15:00 18.3 C 62 % 10.9 C
485 11-08-2016 16:20:00 18.3 C 62 % 10.9 C
486 11-08-2016 16:25:00 18.3 C 61 % 10.66 C
487 11-08-2016 16:30:00 18.4 C 59 % 10.25 C
488 11-08-2016 16:35:00 18.4 C 59 % 10.25 C
489 11-08-2016 16:40:00 18.4 C 59 % 10.25 C
490 11-08-2016 16:45:00 18.4 C 59 % 10.25 C
491 11-08-2016 16:50:00 18.3 C 59 % 10.16 C
492 11-08-2016 16:55:00 18.4 C 62 % 10.99 C
493 11-08-2016 17:00:00 18.4 C 58 % 9.99 C
494 11-08-2016 17:05:00 18.3 C 58 % 9.9 C
495 11-08-2016 17:10:00 18 C 60 % 10.13 C
496 11-08-2016 17:15:00 17.8 C 62 % 10.43 C
497 11-08-2016 17:20:00 17.6 C 65 % 10.95 C
498 11-08-2016 17:25:00 17.4 C 65 % 10.76 C
499 11-08-2016 17:30:00 17.3 C 66 % 10.89 C
500 11-08-2016 17:35:00 17.1 C 67 % 10.93 C
Sensor: Nr:Datum:Temp:Feuchte:Taupunkt:
Aussen-T/F 501 11-08-2016 17:40:00 16.9 C 68 % 10.96 C
502 11-08-2016 17:45:00 16.7 C 68 % 10.77 C
503 11-08-2016 17:50:00 16.5 C 70 % 11.01 C
504 11-08-2016 17:55:00 16.4 C 73 % 11.55 C
505 11-08-2016 18:00:00 16.3 C 75 % 11.86 C
506 11-08-2016 18:05:00 16.3 C 78 % 12.46 C
507 11-08-2016 18:10:00 16.3 C 80 % 12.85 C
508 11-08-2016 18:15:00 16.2 C 80 % 12.75 C
509 11-08-2016 18:20:00 15.9 C 81 % 12.65 C
510 11-08-2016 18:25:00 15.7 C 82 % 12.64 C
511 11-08-2016 18:30:00 15.4 C 83 % 12.53 C
512 11-08-2016 18:35:00 15.2 C 85 % 12.7 C
513 11-08-2016 18:40:00 15.1 C 85 % 12.6 C
514 11-08-2016 18:45:00 14.8 C 86 % 12.48 C
515 11-08-2016 18:50:00 14.6 C 87 % 12.46 C
516 11-08-2016 18:55:00 14.3 C 87 % 12.17 C
517 11-08-2016 19:00:00 14.2 C 87 % 12.07 C
518 11-08-2016 19:05:00 14 C 88 % 12.05 C
519 11-08-2016 19:10:00 13.9 C 89 % 12.12 C
520 11-08-2016 19:15:00 13.9 C 90 % 12.29 C
521 11-08-2016 19:20:00 13.8 C 90 % 12.19 C
522 11-08-2016 19:25:00 13.8 C 90 % 12.19 C
523 11-08-2016 19:30:00 13.8 C 90 % 12.19 C
524 11-08-2016 19:35:00 13.7 C 91 % 12.26 C
525 11-08-2016 19:40:00 13.6 C 91 % 12.16 C
Sensor: Nr:Datum:Temp:Feuchte:Taupunkt:
Aussen-T/F 526 11-08-2016 19:45:00 13.6 C 91 % 12.16 C
527 11-08-2016 19:50:00 13.5 C 91 % 12.06 C
528 11-08-2016 19:55:00 13.4 C 92 % 12.13 C
529 11-08-2016 20:00:00 13.4 C 92 % 12.13 C
530 11-08-2016 20:05:00 13.3 C 92 % 12.03 C
531 11-08-2016 20:10:00 13.3 C 92 % 12.03 C
532 11-08-2016 20:15:00 13.3 C 92 % 12.03 C
533 11-08-2016 20:20:00 13.2 C 92 % 11.93 C
534 11-08-2016 20:25:00 13.1 C 92 % 11.83 C
535 11-08-2016 20:30:00 13.1 C 92 % 11.83 C
536 11-08-2016 20:35:00 12.9 C 92 % 11.63 C
537 11-08-2016 20:40:00 12.9 C 93 % 11.8 C
538 11-08-2016 20:45:00 12.9 C 93 % 11.8 C
539 11-08-2016 20:50:00 12.8 C 93 % 11.7 C
540 11-08-2016 20:55:00 12.8 C 93 % 11.7 C
541 11-08-2016 21:00:00 12.8 C 93 % 11.7 C
542 11-08-2016 21:05:00 12.8 C 93 % 11.7 C
543 11-08-2016 21:10:00 12.8 C 93 % 11.7 C
544 11-08-2016 21:15:00 12.8 C 93 % 11.7 C
545 11-08-2016 21:20:00 12.8 C 93 % 11.7 C
546 11-08-2016 21:25:00 12.8 C 93 % 11.7 C
547 11-08-2016 21:30:00 12.8 C 93 % 11.7 C
548 11-08-2016 21:35:00 12.8 C 93 % 11.7 C
549 11-08-2016 21:40:00 12.8 C 94 % 11.86 C
550 11-08-2016 21:45:00 12.8 C 93 % 11.7 C
Sensor: Nr:Datum:Temp:Feuchte:Taupunkt:
Aussen-T/F 551 11-08-2016 21:50:00 12.8 C 93 % 11.7 C
552 11-08-2016 21:55:00 12.8 C 93 % 11.7 C
553 11-08-2016 22:00:00 12.8 C 93 % 11.7 C
554 11-08-2016 22:05:00 12.9 C 94 % 11.96 C
555 11-08-2016 22:10:00 12.9 C 94 % 11.96 C
556 11-08-2016 22:15:00 12.9 C 94 % 11.96 C
557 11-08-2016 22:20:00 12.9 C 94 % 11.96 C
558 11-08-2016 22:25:00 12.9 C 94 % 11.96 C
559 11-08-2016 22:30:00 12.9 C 94 % 11.96 C
560 11-08-2016 22:35:00 12.9 C 94 % 11.96 C
561 11-08-2016 22:40:00 12.9 C 94 % 11.96 C
562 11-08-2016 22:45:00 12.9 C 94 % 11.96 C
563 11-08-2016 22:50:00 12.9 C 94 % 11.96 C
564 11-08-2016 22:55:00 12.9 C 94 % 11.96 C
565 11-08-2016 23:00:00 12.9 C 94 % 11.96 C
566 11-08-2016 23:05:00 12.9 C 94 % 11.96 C
567 11-08-2016 23:10:00 13 C 94 % 12.06 C
568 11-08-2016 23:15:00 13 C 94 % 12.06 C
569 11-08-2016 23:20:00 13 C 94 % 12.06 C
570 11-08-2016 23:25:00 13.1 C 94 % 12.16 C
571 11-08-2016 23:30:00 13.1 C 94 % 12.16 C
572 11-08-2016 23:35:00 13.1 C 94 % 12.16 C
573 11-08-2016 23:40:00 13.1 C 94 % 12.16 C
574 11-08-2016 23:45:00 13.1 C 94 % 12.16 C
575 11-08-2016 23:50:00 13.2 C 94 % 12.26 C
Sensor: Nr:Datum:Temp:Feuchte:Taupunkt:
Aussen-T/F 576 11-08-2016 23:55:00 13.2 C 95 % 12.42 C
577 12-08-2016 00:00:00 13.2 C 95 % 12.42 C
578 12-08-2016 00:05:00 13.2 C 95 % 12.42 C
579 12-08-2016 00:10:00 13.2 C 95 % 12.42 C
580 12-08-2016 00:15:00 13.2 C 95 % 12.42 C
581 12-08-2016 00:20:00 13.2 C 95 % 12.42 C
582 12-08-2016 00:25:00 13.3 C 95 % 12.52 C
583 12-08-2016 00:30:00 13.3 C 95 % 12.52 C
584 12-08-2016 00:35:00 13.3 C 95 % 12.52 C
585 12-08-2016 00:40:00 13.3 C 94 % 12.36 C
586 12-08-2016 00:45:00 13.3 C 95 % 12.52 C
587 12-08-2016 00:50:00 13.3 C 95 % 12.52 C
588 12-08-2016 00:55:00 13.3 C 94 % 12.36 C
589 12-08-2016 01:00:00 13.3 C 94 % 12.36 C
590 12-08-2016 01:05:00 13.4 C 95 % 12.62 C
591 12-08-2016 01:10:00 13.4 C 95 % 12.62 C
592 12-08-2016 01:15:00 13.4 C 95 % 12.62 C
593 12-08-2016 01:20:00 13.4 C 95 % 12.62 C
594 12-08-2016 01:25:00 13.4 C 95 % 12.62 C
595 12-08-2016 01:30:00 13.4 C 94 % 12.45 C
596 12-08-2016 01:35:00 13.4 C 95 % 12.62 C
597 12-08-2016 01:40:00 13.4 C 95 % 12.62 C
598 12-08-2016 01:45:00 13.4 C 95 % 12.62 C
599 12-08-2016 01:50:00 13.4 C 95 % 12.62 C
600 12-08-2016 01:55:00 13.4 C 95 % 12.62 C
Sensor: Nr:Datum:Temp:Feuchte:Taupunkt:
Aussen-T/F 601 12-08-2016 02:00:00 13.5 C 95 % 12.72 C
602 12-08-2016 02:05:00 13.5 C 95 % 12.72 C
603 12-08-2016 02:10:00 13.5 C 95 % 12.72 C
604 12-08-2016 02:15:00 13.6 C 95 % 12.81 C
605 12-08-2016 02:20:00 13.5 C 95 % 12.72 C
606 12-08-2016 02:25:00 13.5 C 95 % 12.72 C
607 12-08-2016 02:30:00 13.5 C 95 % 12.72 C
608 12-08-2016 02:35:00 13.5 C 95 % 12.72 C
609 12-08-2016 02:40:00 13.5 C 95 % 12.72 C
610 12-08-2016 02:45:00 13.5 C 95 % 12.72 C
611 12-08-2016 02:50:00 13.5 C 95 % 12.72 C
612 12-08-2016 02:55:00 13.6 C 95 % 12.81 C
613 12-08-2016 03:00:00 13.6 C 95 % 12.81 C
614 12-08-2016 03:05:00 13.6 C 95 % 12.81 C
615 12-08-2016 03:10:00 13.6 C 95 % 12.81 C
616 12-08-2016 03:15:00 13.6 C 95 % 12.81 C
617 12-08-2016 03:20:00 13.6 C 95 % 12.81 C
618 12-08-2016 03:25:00 13.6 C 95 % 12.81 C
619 12-08-2016 03:30:00 13.6 C 95 % 12.81 C
620 12-08-2016 03:35:00 13.6 C 95 % 12.81 C
621 12-08-2016 03:40:00 13.7 C 95 % 12.91 C
622 12-08-2016 03:45:00 13.7 C 95 % 12.91 C
623 12-08-2016 03:50:00 13.7 C 95 % 12.91 C
624 12-08-2016 03:55:00 13.7 C 95 % 12.91 C
625 12-08-2016 04:00:00 13.7 C 95 % 12.91 C
Sensor: Nr:Datum:Temp:Feuchte:Taupunkt:
Aussen-T/F 626 12-08-2016 04:05:00 13.7 C 95 % 12.91 C
627 12-08-2016 04:10:00 13.7 C 95 % 12.91 C
628 12-08-2016 04:15:00 13.7 C 95 % 12.91 C
629 12-08-2016 04:20:00 13.7 C 95 % 12.91 C
630 12-08-2016 04:25:00 13.8 C 95 % 13.01 C
631 12-08-2016 04:30:00 13.8 C 95 % 13.01 C
632 12-08-2016 04:35:00 13.8 C 95 % 13.01 C
633 12-08-2016 04:40:00 13.8 C 95 % 13.01 C
634 12-08-2016 04:45:00 13.8 C 95 % 13.01 C
635 12-08-2016 04:50:00 13.9 C 95 % 13.11 C
636 12-08-2016 04:55:00 13.9 C 95 % 13.11 C
637 12-08-2016 05:00:00 13.9 C 95 % 13.11 C
638 12-08-2016 05:05:00 13.9 C 95 % 13.11 C
639 12-08-2016 05:10:00 14 C 95 % 13.21 C
640 12-08-2016 05:15:00 14 C 95 % 13.21 C
641 12-08-2016 05:20:00 14.1 C 95 % 13.31 C
642 12-08-2016 05:25:00 14.1 C 95 % 13.31 C
643 12-08-2016 05:30:00 14.1 C 94 % 13.15 C
644 12-08-2016 05:35:00 14.1 C 94 % 13.15 C
645 12-08-2016 05:40:00 14.1 C 94 % 13.15 C
646 12-08-2016 05:45:00 14.1 C 94 % 13.15 C
647 12-08-2016 05:50:00 14.2 C 95 % 13.41 C
648 12-08-2016 05:55:00 14.2 C 95 % 13.41 C
649 12-08-2016 06:00:00 14.2 C 95 % 13.41 C
650 12-08-2016 06:05:00 14.2 C 94 % 13.25 C
Sensor: Nr:Datum:Temp:Feuchte:Taupunkt:
Aussen-T/F 651 12-08-2016 06:10:00 14.2 C 94 % 13.25 C
652 12-08-2016 06:15:00 14.2 C 94 % 13.25 C
653 12-08-2016 06:20:00 14.2 C 94 % 13.25 C
654 12-08-2016 06:25:00 14.3 C 94 % 13.35 C
655 12-08-2016 06:30:00 14.3 C 94 % 13.35 C
656 12-08-2016 06:35:00 14.3 C 94 % 13.35 C
657 12-08-2016 06:40:00 14.3 C 94 % 13.35 C
658 12-08-2016 06:45:00 14.3 C 94 % 13.35 C
659 12-08-2016 06:50:00 14.3 C 94 % 13.35 C
660 12-08-2016 06:55:00 14.3 C 94 % 13.35 C
661 12-08-2016 07:00:00 14.4 C 94 % 13.45 C
662 12-08-2016 07:05:00 14.4 C 94 % 13.45 C
663 12-08-2016 07:10:00 14.4 C 94 % 13.45 C
664 12-08-2016 07:15:00 14.4 C 94 % 13.45 C
665 12-08-2016 07:20:00 14.5 C 94 % 13.55 C
666 12-08-2016 07:25:00 14.6 C 94 % 13.65 C
667 12-08-2016 07:30:00 14.6 C 94 % 13.65 C
668 12-08-2016 07:35:00 14.7 C 94 % 13.74 C
669 12-08-2016 07:40:00 14.7 C 94 % 13.74 C
670 12-08-2016 07:45:00 14.7 C 94 % 13.74 C
671 12-08-2016 07:50:00 14.7 C 94 % 13.74 C
672 12-08-2016 07:55:00 14.8 C 94 % 13.84 C
673 12-08-2016 08:00:00 14.8 C 94 % 13.84 C
674 12-08-2016 08:05:00 14.8 C 94 % 13.84 C
675 12-08-2016 08:10:00 14.8 C 94 % 13.84 C
Sensor: Nr:Datum:Temp:Feuchte:Taupunkt:
Aussen-T/F 676 12-08-2016 08:15:00 14.9 C 94 % 13.94 C
677 12-08-2016 08:20:00 14.9 C 94 % 13.94 C
678 12-08-2016 08:25:00 15 C 94 % 14.04 C
679 12-08-2016 08:30:00 15 C 94 % 14.04 C
680 12-08-2016 08:35:00 15.1 C 94 % 14.14 C
681 12-08-2016 08:40:00 15.1 C 94 % 14.14 C
682 12-08-2016 08:45:00 15.2 C 94 % 14.24 C
683 12-08-2016 08:50:00 15.3 C 94 % 14.34 C
684 12-08-2016 08:55:00 15.3 C 94 % 14.34 C
685 12-08-2016 09:00:00 15.4 C 94 % 14.44 C
686 12-08-2016 09:05:00 15.4 C 94 % 14.44 C
687 12-08-2016 09:10:00 15.3 C 94 % 14.34 C
688 12-08-2016 09:15:00 15.3 C 94 % 14.34 C
689 12-08-2016 09:20:00 15.4 C 94 % 14.44 C
690 12-08-2016 09:25:00 15.6 C 94 % 14.64 C
691 12-08-2016 09:30:00 15.7 C 94 % 14.74 C
692 12-08-2016 09:35:00 15.7 C 94 % 14.74 C
693 12-08-2016 09:40:00 15.8 C 93 % 14.67 C
694 12-08-2016 09:45:00 15.8 C 93 % 14.67 C
695 12-08-2016 09:50:00 15.9 C 93 % 14.77 C
696 12-08-2016 09:55:00 16 C 93 % 14.87 C
697 12-08-2016 10:00:00 16.1 C 93 % 14.97 C
698 12-08-2016 10:05:00 16.1 C 93 % 14.97 C
699 12-08-2016 10:10:00 16.2 C 93 % 15.07 C
700 12-08-2016 10:15:00 16.2 C 93 % 15.07 C
Sensor: Nr:Datum:Temp:Feuchte:Taupunkt:
Aussen-T/F 701 12-08-2016 10:20:00 16.3 C 93 % 15.17 C
702 12-08-2016 10:25:00 16.3 C 93 % 15.17 C
703 12-08-2016 10:30:00 16.4 C 93 % 15.27 C
704 12-08-2016 10:35:00 16.3 C 93 % 15.17 C
705 12-08-2016 10:40:00 16.3 C 92 % 15 C
706 12-08-2016 10:45:00 16.4 C 92 % 15.1 C
707 12-08-2016 10:50:00 16.6 C 93 % 15.46 C
708 12-08-2016 10:55:00 16.7 C 93 % 15.56 C
709 12-08-2016 11:00:00 16.7 C 92 % 15.39 C
710 12-08-2016 11:05:00 16.9 C 93 % 15.76 C
711 12-08-2016 11:10:00 17.1 C 93 % 15.96 C
712 12-08-2016 11:15:00 17.2 C 92 % 15.89 C
713 12-08-2016 11:20:00 17.3 C 91 % 15.82 C
714 12-08-2016 11:25:00 17.5 C 91 % 16.01 C
715 12-08-2016 11:30:00 17.7 C 91 % 16.21 C
716 12-08-2016 11:35:00 17.8 C 90 % 16.14 C
717 12-08-2016 11:40:00 17.9 C 90 % 16.24 C
718 12-08-2016 11:45:00 18.2 C 90 % 16.53 C
719 12-08-2016 11:50:00 18.4 C 90 % 16.73 C
720 12-08-2016 11:55:00 18.6 C 89 % 16.75 C
721 12-08-2016 12:00:00 18.7 C 89 % 16.85 C
722 12-08-2016 12:05:00 18.8 C 89 % 16.95 C
723 12-08-2016 12:10:00 19 C 88 % 16.97 C
724 12-08-2016 12:15:00 19.2 C 88 % 17.16 C
725 12-08-2016 12:20:00 19.3 C 87 % 17.08 C
Sensor: Nr:Datum:Temp:Feuchte:Taupunkt:
Aussen-T/F 726 12-08-2016 12:25:00 19.6 C 86 % 17.19 C
727 12-08-2016 12:30:00 19.7 C 86 % 17.29 C
728 12-08-2016 12:35:00 19.7 C 85 % 17.11 C
729 12-08-2016 12:40:00 19.8 C 86 % 17.39 C
730 12-08-2016 12:45:00 19.7 C 85 % 17.11 C
731 12-08-2016 12:50:00 19.7 C 86 % 17.29 C
732 12-08-2016 12:55:00 19.7 C 86 % 17.29 C
733 12-08-2016 13:00:00 19.7 C 87 % 17.47 C
734 12-08-2016 13:05:00 19.9 C 86 % 17.49 C
735 12-08-2016 13:10:00 20.1 C 85 % 17.5 C
736 12-08-2016 13:15:00 20 C 84 % 17.21 C
737 12-08-2016 13:20:00 20 C 85 % 17.4 C
738 12-08-2016 13:25:00 20 C 86 % 17.59 C
739 12-08-2016 13:30:00 20.2 C 85 % 17.6 C
740 12-08-2016 13:35:00 20.4 C 84 % 17.61 C
741 12-08-2016 13:40:00 20.7 C 84 % 17.9 C
742 12-08-2016 13:45:00 20.8 C 83 % 17.81 C
743 12-08-2016 13:50:00 20.9 C 83 % 17.9 C
744 12-08-2016 13:55:00 20.9 C 85 % 18.28 C
745 12-08-2016 14:00:00 20.9 C 83 % 17.9 C
746 12-08-2016 14:05:00 21 C 83 % 18 C
747 12-08-2016 14:10:00 21.2 C 83 % 18.2 C
748 12-08-2016 14:15:00 21.4 C 81 % 18 C
749 12-08-2016 14:20:00 21.6 C 80 % 18 C
750 12-08-2016 14:25:00 21.6 C 81 % 18.2 C
Sensor: Nr:Datum:Temp:Feuchte:Taupunkt:
Aussen-T/F 751 12-08-2016 14:30:00 21.4 C 83 % 18.39 C
752 12-08-2016 14:35:00 21.3 C 83 % 18.29 C
753 12-08-2016 14:40:00 21.3 C 84 % 18.49 C
754 12-08-2016 14:45:00 21.1 C 84 % 18.29 C
755 12-08-2016 14:50:00 20.9 C 85 % 18.28 C
756 12-08-2016 14:55:00 20.8 C 87 % 18.56 C
757 12-08-2016 15:00:00 20.7 C 87 % 18.46 C
758 12-08-2016 15:05:00 20.7 C 87 % 18.46 C
759 12-08-2016 15:10:00 20.6 C 88 % 18.54 C
760 12-08-2016 15:15:00 20.5 C 88 % 18.44 C
761 12-08-2016 15:20:00 20.5 C 88 % 18.44 C
762 12-08-2016 15:25:00 20.5 C 88 % 18.44 C
763 12-08-2016 15:30:00 20.6 C 88 % 18.54 C
764 12-08-2016 15:35:00 20.6 C 89 % 18.72 C
765 12-08-2016 15:40:00 20.5 C 87 % 18.26 C
766 12-08-2016 15:45:00 20.5 C 88 % 18.44 C
767 12-08-2016 15:50:00 20.4 C 88 % 18.34 C
768 12-08-2016 15:55:00 20.4 C 89 % 18.53 C
769 12-08-2016 16:00:00 20.6 C 90 % 18.9 C
770 12-08-2016 16:05:00 20.9 C 90 % 19.2 C
771 12-08-2016 16:10:00 21 C 87 % 18.75 C
772 12-08-2016 16:15:00 21.3 C 88 % 19.23 C
773 12-08-2016 16:20:00 21.3 C 87 % 19.05 C
774 12-08-2016 16:25:00 21.7 C 83 % 18.69 C
775 12-08-2016 16:30:00 22.2 C 82 % 18.98 C
Sensor: Nr:Datum:Temp:Feuchte:Taupunkt:
Aussen-T/F 776 12-08-2016 16:35:00 22.7 C 80 % 19.07 C
777 12-08-2016 16:40:00 23.1 C 76 % 18.64 C
778 12-08-2016 16:45:00 23.2 C 78 % 19.15 C
779 12-08-2016 16:50:00 23.2 C 76 % 18.73 C
780 12-08-2016 16:55:00 23.1 C 77 % 18.85 C
781 12-08-2016 17:00:00 23 C 78 % 18.96 C
782 12-08-2016 17:05:00 22.8 C 82 % 19.56 C
783 12-08-2016 17:10:00 22.6 C 83 % 19.56 C
784 12-08-2016 17:15:00 22.4 C 83 % 19.37 C
785 12-08-2016 17:20:00 22.2 C 83 % 19.17 C
786 12-08-2016 17:25:00 22.1 C 84 % 19.27 C
787 12-08-2016 17:30:00 21.9 C 84 % 19.07 C
788 12-08-2016 17:35:00 21.7 C 84 % 18.88 C
789 12-08-2016 17:40:00 21.5 C 85 % 18.87 C
790 12-08-2016 17:45:00 21.3 C 86 % 18.86 C
791 12-08-2016 17:50:00 21.2 C 86 % 18.76 C
792 12-08-2016 17:55:00 21.1 C 87 % 18.85 C
793 12-08-2016 18:00:00 20.9 C 87 % 18.65 C
794 12-08-2016 18:05:00 20.8 C 87 % 18.56 C
795 12-08-2016 18:10:00 20.7 C 88 % 18.64 C
796 12-08-2016 18:15:00 20.5 C 88 % 18.44 C
797 12-08-2016 18:20:00 20.4 C 88 % 18.34 C
798 12-08-2016 18:25:00 20.3 C 88 % 18.25 C
799 12-08-2016 18:30:00 20.2 C 89 % 18.33 C
800 12-08-2016 18:35:00 20.1 C 89 % 18.23 C
Sensor: Nr:Datum:Temp:Feuchte:Taupunkt:
Aussen-T/F 801 12-08-2016 18:40:00 20 C 89 % 18.13 C
802 12-08-2016 18:45:00 19.9 C 89 % 18.03 C
803 12-08-2016 18:50:00 19.8 C 89 % 17.93 C
804 12-08-2016 18:55:00 19.8 C 90 % 18.11 C
805 12-08-2016 19:00:00 19.8 C 90 % 18.11 C
806 12-08-2016 19:05:00 19.8 C 90 % 18.11 C
807 12-08-2016 19:10:00 19.8 C 90 % 18.11 C
808 12-08-2016 19:15:00 19.9 C 90 % 18.21 C
809 12-08-2016 19:20:00 19.9 C 90 % 18.21 C
810 12-08-2016 19:25:00 19.9 C 90 % 18.21 C
811 12-08-2016 19:30:00 19.9 C 90 % 18.21 C
812 12-08-2016 19:35:00 19.9 C 90 % 18.21 C
813 12-08-2016 19:40:00 19.9 C 90 % 18.21 C
814 12-08-2016 19:45:00 19.9 C 90 % 18.21 C
815 12-08-2016 19:50:00 19.8 C 90 % 18.11 C
816 12-08-2016 19:55:00 19.8 C 90 % 18.11 C
817 12-08-2016 20:00:00 19.7 C 90 % 18.01 C
818 12-08-2016 20:05:00 19.7 C 90 % 18.01 C
819 12-08-2016 20:10:00 19.6 C 90 % 17.91 C
820 12-08-2016 20:15:00 19.5 C 90 % 17.82 C
821 12-08-2016 20:20:00 19.4 C 90 % 17.72 C
822 12-08-2016 20:25:00 19.4 C 90 % 17.72 C
823 12-08-2016 20:30:00 19.3 C 90 % 17.62 C
824 12-08-2016 20:35:00 19.2 C 90 % 17.52 C
825 12-08-2016 20:40:00 19.1 C 91 % 17.6 C
Sensor: Nr:Datum:Temp:Feuchte:Taupunkt:
Aussen-T/F 826 12-08-2016 20:45:00 19.1 C 91 % 17.6 C
827 12-08-2016 20:50:00 19 C 91 % 17.5 C
828 12-08-2016 20:55:00 18.9 C 91 % 17.4 C
829 12-08-2016 21:00:00 18.8 C 91 % 17.3 C
830 12-08-2016 21:05:00 18.8 C 91 % 17.3 C
831 12-08-2016 21:10:00 18.7 C 91 % 17.2 C
832 12-08-2016 21:15:00 18.7 C 91 % 17.2 C
833 12-08-2016 21:20:00 18.6 C 91 % 17.1 C
834 12-08-2016 21:25:00 18.6 C 91 % 17.1 C
835 12-08-2016 21:30:00 18.5 C 92 % 17.18 C
836 12-08-2016 21:35:00 18.5 C 92 % 17.18 C
837 12-08-2016 21:40:00 18.5 C 92 % 17.18 C
838 12-08-2016 21:45:00 18.5 C 92 % 17.18 C
839 12-08-2016 21:50:00 18.5 C 92 % 17.18 C
840 12-08-2016 21:55:00 18.5 C 92 % 17.18 C
841 12-08-2016 22:00:00 18.5 C 92 % 17.18 C
842 12-08-2016 22:05:00 18.5 C 92 % 17.18 C
843 12-08-2016 22:10:00 18.5 C 92 % 17.18 C
844 12-08-2016 22:15:00 18.5 C 92 % 17.18 C
845 12-08-2016 22:20:00 18.5 C 92 % 17.18 C
846 12-08-2016 22:25:00 18.5 C 91 % 17 C
847 12-08-2016 22:30:00 18.5 C 91 % 17 C
848 12-08-2016 22:35:00 18.5 C 91 % 17 C
849 12-08-2016 22:40:00 18.5 C 91 % 17 C
850 12-08-2016 22:45:00 18.5 C 91 % 17 C
Sensor: Nr:Datum:Temp:Feuchte:Taupunkt:
Aussen-T/F 851 12-08-2016 22:50:00 18.5 C 91 % 17 C
852 12-08-2016 22:55:00 18.5 C 91 % 17 C
853 12-08-2016 23:00:00 18.5 C 91 % 17 C
854 12-08-2016 23:05:00 18.5 C 91 % 17 C
855 12-08-2016 23:10:00 18.5 C 90 % 16.83 C
856 12-08-2016 23:15:00 18.6 C 90 % 16.93 C
857 12-08-2016 23:20:00 18.6 C 90 % 16.93 C
858 12-08-2016 23:25:00 18.6 C 90 % 16.93 C
859 12-08-2016 23:30:00 18.6 C 90 % 16.93 C
860 12-08-2016 23:35:00 18.6 C 90 % 16.93 C
861 12-08-2016 23:40:00 18.5 C 90 % 16.83 C
862 12-08-2016 23:45:00 18.5 C 90 % 16.83 C
863 12-08-2016 23:50:00 18.5 C 90 % 16.83 C
864 12-08-2016 23:55:00 18.5 C 90 % 16.83 C
865 13-08-2016 00:00:00 18.5 C 90 % 16.83 C
866 13-08-2016 00:05:00 18.5 C 90 % 16.83 C
867 13-08-2016 00:10:00 18.5 C 90 % 16.83 C
868 13-08-2016 00:15:00 18.5 C 90 % 16.83 C
869 13-08-2016 00:20:00 18.4 C 90 % 16.73 C
870 13-08-2016 00:25:00 18.4 C 90 % 16.73 C
871 13-08-2016 00:30:00 18.3 C 90 % 16.63 C
872 13-08-2016 00:35:00 18.3 C 90 % 16.63 C
873 13-08-2016 00:40:00 18.2 C 90 % 16.53 C
874 13-08-2016 00:45:00 18.1 C 90 % 16.43 C
875 13-08-2016 00:50:00 18.1 C 90 % 16.43 C
Sensor: Nr:Datum:Temp:Feuchte:Taupunkt:
Aussen-T/F 876 13-08-2016 00:55:00 18 C 91 % 16.51 C
877 13-08-2016 01:00:00 17.9 C 91 % 16.41 C
878 13-08-2016 01:05:00 17.9 C 91 % 16.41 C
879 13-08-2016 01:10:00 17.8 C 91 % 16.31 C
880 13-08-2016 01:15:00 17.8 C 91 % 16.31 C
881 13-08-2016 01:20:00 17.8 C 91 % 16.31 C
882 13-08-2016 01:25:00 17.8 C 91 % 16.31 C
883 13-08-2016 01:30:00 17.7 C 91 % 16.21 C
884 13-08-2016 01:35:00 17.7 C 92 % 16.38 C
885 13-08-2016 01:40:00 17.7 C 92 % 16.38 C
886 13-08-2016 01:45:00 17.6 C 92 % 16.28 C
887 13-08-2016 01:50:00 17.6 C 92 % 16.28 C
888 13-08-2016 01:55:00 17.6 C 92 % 16.28 C
889 13-08-2016 02:00:00 17.5 C 92 % 16.19 C
890 13-08-2016 02:05:00 17.4 C 92 % 16.09 C
891 13-08-2016 02:10:00 17.4 C 92 % 16.09 C
892 13-08-2016 02:15:00 17.3 C 92 % 15.99 C
893 13-08-2016 02:20:00 17.3 C 92 % 15.99 C
894 13-08-2016 02:25:00 17.2 C 92 % 15.89 C
895 13-08-2016 02:30:00 17.2 C 92 % 15.89 C
896 13-08-2016 02:35:00 17.1 C 92 % 15.79 C
897 13-08-2016 02:40:00 17.1 C 93 % 15.96 C
898 13-08-2016 02:45:00 17.1 C 93 % 15.96 C
899 13-08-2016 02:50:00 17 C 93 % 15.86 C
900 13-08-2016 02:55:00 16.9 C 93 % 15.76 C
Sensor: Nr:Datum:Temp:Feuchte:Taupunkt:
Aussen-T/F 901 13-08-2016 03:00:00 16.8 C 92 % 15.49 C
902 13-08-2016 03:05:00 16.8 C 93 % 15.66 C
903 13-08-2016 03:10:00 16.7 C 93 % 15.56 C
904 13-08-2016 03:15:00 16.7 C 93 % 15.56 C
905 13-08-2016 03:20:00 16.6 C 93 % 15.46 C
906 13-08-2016 03:25:00 16.6 C 93 % 15.46 C
907 13-08-2016 03:30:00 16.4 C 93 % 15.27 C
908 13-08-2016 03:35:00 16.4 C 93 % 15.27 C
909 13-08-2016 03:40:00 16.3 C 93 % 15.17 C
910 13-08-2016 03:45:00 16.3 C 93 % 15.17 C
911 13-08-2016 03:50:00 16.2 C 93 % 15.07 C
912 13-08-2016 03:55:00 16.1 C 93 % 14.97 C
913 13-08-2016 04:00:00 16.1 C 93 % 14.97 C
914 13-08-2016 04:05:00 15.9 C 94 % 14.94 C
915 13-08-2016 04:10:00 15.9 C 94 % 14.94 C
916 13-08-2016 04:15:00 15.8 C 94 % 14.84 C
917 13-08-2016 04:20:00 15.8 C 94 % 14.84 C
918 13-08-2016 04:25:00 15.7 C 94 % 14.74 C
919 13-08-2016 04:30:00 15.6 C 94 % 14.64 C
920 13-08-2016 04:35:00 15.6 C 94 % 14.64 C
921 13-08-2016 04:40:00 15.5 C 94 % 14.54 C
922 13-08-2016 04:45:00 15.4 C 94 % 14.44 C
923 13-08-2016 04:50:00 15.4 C 94 % 14.44 C
924 13-08-2016 04:55:00 15.3 C 94 % 14.34 C
925 13-08-2016 05:00:00 15.3 C 94 % 14.34 C
Sensor: Nr:Datum:Temp:Feuchte:Taupunkt:
Aussen-T/F 926 13-08-2016 05:05:00 15.2 C 94 % 14.24 C
927 13-08-2016 05:10:00 15.1 C 94 % 14.14 C
928 13-08-2016 05:15:00 15 C 94 % 14.04 C
929 13-08-2016 05:20:00 15 C 95 % 14.21 C
930 13-08-2016 05:25:00 14.9 C 95 % 14.11 C
931 13-08-2016 05:30:00 14.9 C 95 % 14.11 C
932 13-08-2016 05:35:00 14.8 C 94 % 13.84 C
933 13-08-2016 05:40:00 14.9 C 95 % 14.11 C
934 13-08-2016 05:45:00 14.9 C 95 % 14.11 C
935 13-08-2016 05:50:00 14.9 C 95 % 14.11 C
936 13-08-2016 05:55:00 14.9 C 95 % 14.11 C
937 13-08-2016 06:00:00 14.9 C 95 % 14.11 C
938 13-08-2016 06:05:00 14.9 C 95 % 14.11 C
939 13-08-2016 06:10:00 14.8 C 95 % 14.01 C
940 13-08-2016 06:15:00 14.8 C 95 % 14.01 C
941 13-08-2016 06:20:00 14.8 C 95 % 14.01 C
942 13-08-2016 06:25:00 14.8 C 95 % 14.01 C
943 13-08-2016 06:30:00 14.7 C 95 % 13.91 C
944 13-08-2016 06:35:00 14.6 C 95 % 13.81 C
945 13-08-2016 06:40:00 14.5 C 95 % 13.71 C
946 13-08-2016 06:45:00 14.4 C 95 % 13.61 C
947 13-08-2016 06:50:00 14.4 C 95 % 13.61 C
948 13-08-2016 06:55:00 14.4 C 95 % 13.61 C
949 13-08-2016 07:00:00 14.4 C 95 % 13.61 C
950 13-08-2016 07:05:00 14.4 C 95 % 13.61 C
Sensor: Nr:Datum:Temp:Feuchte:Taupunkt:
Aussen-T/F 951 13-08-2016 07:10:00 14.4 C 95 % 13.61 C
952 13-08-2016 07:15:00 14.4 C 95 % 13.61 C
953 13-08-2016 07:20:00 14.4 C 95 % 13.61 C
954 13-08-2016 07:25:00 14.4 C 96 % 13.77 C
955 13-08-2016 07:30:00 14.6 C 96 % 13.97 C
956 13-08-2016 07:35:00 14.7 C 96 % 14.07 C
957 13-08-2016 07:40:00 14.7 C 96 % 14.07 C
958 13-08-2016 07:45:00 14.8 C 96 % 14.17 C
959 13-08-2016 07:50:00 14.9 C 96 % 14.27 C
960 13-08-2016 07:55:00 14.9 C 96 % 14.27 C
961 13-08-2016 08:00:00 15 C 96 % 14.37 C
962 13-08-2016 08:05:00 15.1 C 96 % 14.47 C
963 13-08-2016 08:10:00 15.1 C 96 % 14.47 C
964 13-08-2016 08:15:00 15.2 C 96 % 14.57 C
965 13-08-2016 08:20:00 15.3 C 96 % 14.67 C
966 13-08-2016 08:25:00 15.4 C 96 % 14.77 C
967 13-08-2016 08:30:00 15.4 C 96 % 14.77 C
968 13-08-2016 08:35:00 15.4 C 96 % 14.77 C
969 13-08-2016 08:40:00 15.5 C 96 % 14.86 C
970 13-08-2016 08:45:00 15.6 C 96 % 14.96 C
971 13-08-2016 08:50:00 15.7 C 96 % 15.06 C
972 13-08-2016 08:55:00 15.9 C 96 % 15.26 C
973 13-08-2016 09:00:00 16 C 96 % 15.36 C
974 13-08-2016 09:05:00 16.2 C 96 % 15.56 C
975 13-08-2016 09:10:00 16.3 C 95 % 15.5 C
Sensor: Nr:Datum:Temp:Feuchte:Taupunkt:
Aussen-T/F 976 13-08-2016 09:15:00 16.4 C 95 % 15.6 C
977 13-08-2016 09:20:00 16.4 C 95 % 15.6 C
978 13-08-2016 09:25:00 16.6 C 95 % 15.8 C
979 13-08-2016 09:30:00 16.7 C 95 % 15.9 C
980 13-08-2016 09:35:00 16.8 C 95 % 15.99 C
981 13-08-2016 09:40:00 17 C 95 % 16.19 C
982 13-08-2016 09:45:00 17.1 C 95 % 16.29 C
983 13-08-2016 09:50:00 17.3 C 94 % 16.33 C
984 13-08-2016 09:55:00 17.5 C 94 % 16.52 C
985 13-08-2016 10:00:00 17.7 C 93 % 16.55 C
986 13-08-2016 10:05:00 17.9 C 93 % 16.75 C
987 13-08-2016 10:10:00 18.1 C 92 % 16.78 C
988 13-08-2016 10:15:00 18.6 C 89 % 16.75 C
989 13-08-2016 10:20:00 18.9 C 88 % 16.87 C
990 13-08-2016 10:25:00 19.2 C 87 % 16.98 C
991 13-08-2016 10:30:00 19.4 C 86 % 17 C
992 13-08-2016 10:35:00 19.6 C 87 % 17.38 C
993 13-08-2016 10:40:00 19.8 C 86 % 17.39 C
994 13-08-2016 10:45:00 20 C 85 % 17.4 C
995 13-08-2016 10:50:00 20.3 C 84 % 17.51 C
996 13-08-2016 10:55:00 20.6 C 82 % 17.42 C
997 13-08-2016 11:00:00 20.9 C 81 % 17.52 C
998 13-08-2016 11:05:00 21.2 C 80 % 17.61 C
999 13-08-2016 11:10:00 21.4 C 79 % 17.61 C
1000 13-08-2016 11:15:00 21.5 C 79 % 17.7 C
Sensor: Nr:Datum:Temp:Feuchte:Taupunkt:
Aussen-T/F 1001 13-08-2016 11:20:00 21.6 C 80 % 18 C
1002 13-08-2016 11:25:00 21.7 C 79 % 17.9 C
1003 13-08-2016 11:30:00 21.8 C 81 % 18.39 C
1004 13-08-2016 11:35:00 21.8 C 80 % 18.2 C
1005 13-08-2016 11:40:00 22.1 C 79 % 18.29 C
1006 13-08-2016 11:45:00 22.2 C 80 % 18.58 C
1007 13-08-2016 11:50:00 22.2 C 79 % 18.38 C
1008 13-08-2016 11:55:00 22.2 C 79 % 18.38 C
1009 13-08-2016 12:00:00 22.3 C 80 % 18.68 C
1010 13-08-2016 12:05:00 22.3 C 78 % 18.28 C
1011 13-08-2016 12:10:00 22.4 C 76 % 17.96 C
1012 13-08-2016 12:15:00 22.6 C 75 % 17.94 C
1013 13-08-2016 12:20:00 22.8 C 74 % 17.92 C
1014 13-08-2016 12:25:00 22.9 C 76 % 18.44 C
1015 13-08-2016 12:30:00 22.9 C 75 % 18.23 C
1016 13-08-2016 12:35:00 22.8 C 75 % 18.14 C
1017 13-08-2016 12:40:00 22.8 C 75 % 18.14 C
1018 13-08-2016 12:45:00 22.8 C 77 % 18.56 C
1019 13-08-2016 12:50:00 22.8 C 75 % 18.14 C
1020 13-08-2016 12:55:00 22.9 C 74 % 18.02 C
1021 13-08-2016 13:00:00 23.1 C 73 % 17.99 C
1022 13-08-2016 13:05:00 23.2 C 74 % 18.31 C
1023 13-08-2016 13:10:00 23.2 C 74 % 18.31 C
1024 13-08-2016 13:15:00 23.2 C 72 % 17.87 C
1025 13-08-2016 13:20:00 23.3 C 71 % 17.75 C
Sensor: Nr:Datum:Temp:Feuchte:Taupunkt:
Aussen-T/F 1026 13-08-2016 13:25:00 23.4 C 73 % 18.28 C
1027 13-08-2016 13:30:00 23.6 C 72 % 18.26 C
1028 13-08-2016 13:35:00 23.8 C 74 % 18.89 C
1029 13-08-2016 13:40:00 23.8 C 72 % 18.45 C
1030 13-08-2016 13:45:00 23.8 C 69 % 17.77 C
1031 13-08-2016 13:50:00 24.1 C 68 % 17.82 C
1032 13-08-2016 13:55:00 24.2 C 74 % 19.27 C
1033 13-08-2016 14:00:00 24.3 C 72 % 18.93 C
1034 13-08-2016 14:05:00 24.5 C 68 % 18.2 C
1035 13-08-2016 14:10:00 24.6 C 67 % 18.06 C
1036 13-08-2016 14:15:00 24.7 C 70 % 18.86 C
1037 13-08-2016 14:20:00 24.8 C 68 % 18.49 C
1038 13-08-2016 14:25:00 24.8 C 68 % 18.49 C
1039 13-08-2016 14:30:00 24.8 C 67 % 18.25 C
1040 13-08-2016 14:35:00 24.9 C 69 % 18.82 C
1041 13-08-2016 14:40:00 24.8 C 63 % 17.28 C
1042 13-08-2016 14:45:00 24.8 C 58 % 15.98 C
1043 13-08-2016 14:50:00 25.3 C 66 % 18.49 C
1044 13-08-2016 14:55:00 25.4 C 71 % 19.76 C
1045 13-08-2016 15:00:00 25.4 C 69 % 19.3 C
1046 13-08-2016 15:05:00 25.3 C 58 % 16.44 C
1047 13-08-2016 15:10:00 25.3 C 57 % 16.17 C
1048 13-08-2016 15:15:00 25.8 C 55 % 16.07 C
1049 13-08-2016 15:20:00 26.2 C 52 % 15.57 C
1050 13-08-2016 15:25:00 26.3 C 54 % 16.25 C
Sensor: Nr:Datum:Temp:Feuchte:Taupunkt:
Aussen-T/F 1051 13-08-2016 15:30:00 26.3 C 63 % 18.69 C
1052 13-08-2016 15:35:00 26.4 C 59 % 17.74 C
1053 13-08-2016 15:40:00 26.6 C 59 % 17.93 C
1054 13-08-2016 15:45:00 26.6 C 60 % 18.2 C
1055 13-08-2016 15:50:00 26.7 C 63 % 19.07 C
1056 13-08-2016 15:55:00 26.7 C 59 % 18.02 C
1057 13-08-2016 16:00:00 26.5 C 55 % 16.72 C
1058 13-08-2016 16:05:00 26.8 C 54 % 16.71 C
1059 13-08-2016 16:10:00 27.4 C 47 % 15.09 C
1060 13-08-2016 16:15:00 28 C 45 % 14.96 C
1061 13-08-2016 16:20:00 28.5 C 44 % 15.06 C
1062 13-08-2016 16:25:00 28.8 C 42 % 14.61 C
1063 13-08-2016 16:30:00 29.2 C 40 % 14.21 C
1064 13-08-2016 16:35:00 29.5 C 46 % 16.66 C
1065 13-08-2016 16:40:00 29.7 C 41 % 15.04 C
1066 13-08-2016 16:45:00 29.7 C 50 % 18.16 C
1067 13-08-2016 16:50:00 29.8 C 43 % 15.87 C
1068 13-08-2016 16:55:00 29.7 C 47 % 17.18 C
1069 13-08-2016 17:00:00 29.7 C 45 % 16.5 C
1070 13-08-2016 17:05:00 29.8 C 51 % 18.57 C
1071 13-08-2016 17:10:00 29.8 C 42 % 15.51 C
1072 13-08-2016 17:15:00 30 C 53 % 19.37 C
1073 13-08-2016 17:20:00 29.9 C 41 % 15.22 C
1074 13-08-2016 17:25:00 29.8 C 44 % 16.23 C
1075 13-08-2016 17:30:00 29.8 C 38 % 13.95 C
Sensor: Nr:Datum:Temp:Feuchte:Taupunkt:
Aussen-T/F 1076 13-08-2016 17:35:00 29.9 C 40 % 14.84 C
1077 13-08-2016 17:40:00 30 C 45 % 16.77 C
1078 13-08-2016 17:45:00 29.9 C 44 % 16.32 C
1079 13-08-2016 17:50:00 29.8 C 39 % 14.36 C
1080 13-08-2016 17:55:00 29.6 C 45 % 16.41 C
1081 13-08-2016 18:00:00 29.5 C 38 % 13.69 C
1082 13-08-2016 18:05:00 29.6 C 37 % 13.37 C
1083 13-08-2016 18:10:00 29.8 C 40 % 14.75 C
1084 13-08-2016 18:15:00 29.9 C 45 % 16.68 C
1085 13-08-2016 18:20:00 29.7 C 38 % 13.87 C
1086 13-08-2016 18:25:00 29.7 C 36 % 13.04 C
1087 13-08-2016 18:30:00 29.8 C 35 % 12.69 C
1088 13-08-2016 18:35:00 29.9 C 39 % 14.44 C
1089 13-08-2016 18:40:00 29.8 C 46 % 16.93 C
1090 13-08-2016 18:45:00 29.4 C 42 % 15.15 C
1091 13-08-2016 18:50:00 29.3 C 46 % 16.48 C
1092 13-08-2016 18:55:00 29.3 C 45 % 16.13 C
1093 13-08-2016 19:00:00 29.2 C 39 % 13.82 C
1094 13-08-2016 19:05:00 29.1 C 43 % 15.24 C
1095 13-08-2016 19:10:00 28.6 C 48 % 16.51 C
1096 13-08-2016 19:15:00 27.9 C 50 % 16.51 C
1097 13-08-2016 19:20:00 27.2 C 52 % 16.49 C
1098 13-08-2016 19:25:00 26.3 C 50 % 15.05 C
1099 13-08-2016 19:30:00 25.9 C 49 % 14.37 C
1100 13-08-2016 19:35:00 25.7 C 57 % 16.54 C
Sensor: Nr:Datum:Temp:Feuchte:Taupunkt:
Aussen-T/F 1101 13-08-2016 19:40:00 25.3 C 58 % 16.44 C
1102 13-08-2016 19:45:00 25.2 C 54 % 15.23 C
1103 13-08-2016 19:50:00 25.2 C 54 % 15.23 C
1104 13-08-2016 19:55:00 25.2 C 58 % 16.35 C
1105 13-08-2016 20:00:00 25.1 C 57 % 15.98 C
1106 13-08-2016 20:05:00 25 C 62 % 17.21 C
1107 13-08-2016 20:10:00 24.8 C 64 % 17.53 C
1108 13-08-2016 20:15:00 24.3 C 64 % 17.05 C
1109 13-08-2016 20:20:00 23.9 C 66 % 17.16 C
1110 13-08-2016 20:25:00 23.5 C 67 % 17.02 C
1111 13-08-2016 20:30:00 23.2 C 70 % 17.42 C
1112 13-08-2016 20:35:00 22.9 C 71 % 17.36 C
1113 13-08-2016 20:40:00 22.6 C 73 % 17.51 C
1114 13-08-2016 20:45:00 22.2 C 73 % 17.13 C
1115 13-08-2016 20:50:00 21.9 C 75 % 17.27 C
1116 13-08-2016 20:55:00 21.6 C 75 % 16.98 C
1117 13-08-2016 21:00:00 21.4 C 76 % 16.99 C
1118 13-08-2016 21:05:00 21.2 C 77 % 17.01 C
1119 13-08-2016 21:10:00 20.9 C 78 % 16.92 C
1120 13-08-2016 21:15:00 20.7 C 79 % 16.93 C
1121 13-08-2016 21:20:00 20.5 C 80 % 16.93 C
1122 13-08-2016 21:25:00 20.3 C 80 % 16.74 C
1123 13-08-2016 21:30:00 20.2 C 81 % 16.84 C
1124 13-08-2016 21:35:00 20 C 81 % 16.64 C
1125 13-08-2016 21:40:00 19.8 C 81 % 16.45 C
Sensor: Nr:Datum:Temp:Feuchte:Taupunkt:
Aussen-T/F 1126 13-08-2016 21:45:00 19.7 C 82 % 16.54 C
1127 13-08-2016 21:50:00 19.6 C 83 % 16.63 C
1128 13-08-2016 21:55:00 19.4 C 83 % 16.44 C
1129 13-08-2016 22:00:00 19.3 C 84 % 16.53 C
1130 13-08-2016 22:05:00 19.2 C 84 % 16.43 C
1131 13-08-2016 22:10:00 19.1 C 84 % 16.33 C
1132 13-08-2016 22:15:00 19 C 85 % 16.42 C
1133 13-08-2016 22:20:00 18.9 C 85 % 16.32 C
1134 13-08-2016 22:25:00 18.8 C 85 % 16.23 C
1135 13-08-2016 22:30:00 18.8 C 85 % 16.23 C
1136 13-08-2016 22:35:00 18.7 C 85 % 16.13 C
1137 13-08-2016 22:40:00 18.6 C 86 % 16.21 C
1138 13-08-2016 22:45:00 18.6 C 86 % 16.21 C
1139 13-08-2016 22:50:00 18.5 C 86 % 16.11 C
1140 13-08-2016 22:55:00 18.4 C 86 % 16.02 C
1141 13-08-2016 23:00:00 18.3 C 86 % 15.92 C
1142 13-08-2016 23:05:00 18.3 C 87 % 16.1 C
1143 13-08-2016 23:10:00 18.2 C 87 % 16 C
1144 13-08-2016 23:15:00 18.2 C 87 % 16 C
1145 13-08-2016 23:20:00 18.1 C 87 % 15.9 C
1146 13-08-2016 23:25:00 17.9 C 87 % 15.71 C
1147 13-08-2016 23:30:00 17.8 C 87 % 15.61 C
1148 13-08-2016 23:35:00 17.7 C 88 % 15.69 C
1149 13-08-2016 23:40:00 17.5 C 88 % 15.49 C
1150 13-08-2016 23:45:00 17.3 C 89 % 15.47 C
Sensor: Nr:Datum:Temp:Feuchte:Taupunkt:
Aussen-T/F 1151 13-08-2016 23:50:00 17.3 C 89 % 15.47 C
1152 13-08-2016 23:55:00 17.2 C 89 % 15.37 C
1153 14-08-2016 00:00:00 17.1 C 90 % 15.45 C
1154 14-08-2016 00:05:00 16.9 C 90 % 15.25 C
1155 14-08-2016 00:10:00 16.8 C 90 % 15.15 C
1156 14-08-2016 00:15:00 16.7 C 90 % 15.05 C
1157 14-08-2016 00:20:00 16.6 C 90 % 14.95 C
1158 14-08-2016 00:25:00 16.6 C 91 % 15.13 C
1159 14-08-2016 00:30:00 16.6 C 91 % 15.13 C
1160 14-08-2016 00:35:00 16.4 C 91 % 14.93 C
1161 14-08-2016 00:40:00 16.3 C 91 % 14.83 C
1162 14-08-2016 00:45:00 16.2 C 91 % 14.73 C
1163 14-08-2016 00:50:00 16.2 C 91 % 14.73 C
1164 14-08-2016 00:55:00 16.1 C 91 % 14.63 C
1165 14-08-2016 01:00:00 16.1 C 92 % 14.8 C
1166 14-08-2016 01:05:00 15.9 C 92 % 14.6 C
1167 14-08-2016 01:10:00 15.9 C 92 % 14.6 C
1168 14-08-2016 01:15:00 15.8 C 92 % 14.5 C
1169 14-08-2016 01:20:00 15.7 C 92 % 14.4 C
1170 14-08-2016 01:25:00 15.7 C 92 % 14.4 C
1171 14-08-2016 01:30:00 15.6 C 92 % 14.31 C
1172 14-08-2016 01:35:00 15.6 C 92 % 14.31 C
1173 14-08-2016 01:40:00 15.5 C 92 % 14.21 C
1174 14-08-2016 01:45:00 15.4 C 92 % 14.11 C
1175 14-08-2016 01:50:00 15.3 C 93 % 14.18 C
Sensor: Nr:Datum:Temp:Feuchte:Taupunkt:
Aussen-T/F 1176 14-08-2016 01:55:00 15.3 C 93 % 14.18 C
1177 14-08-2016 02:00:00 15.3 C 93 % 14.18 C
1178 14-08-2016 02:05:00 15.3 C 93 % 14.18 C
1179 14-08-2016 02:10:00 15.3 C 93 % 14.18 C
1180 14-08-2016 02:15:00 15.3 C 93 % 14.18 C
1181 14-08-2016 02:20:00 15.2 C 93 % 14.08 C
1182 14-08-2016 02:25:00 15.2 C 93 % 14.08 C
1183 14-08-2016 02:30:00 15.1 C 93 % 13.98 C
1184 14-08-2016 02:35:00 15 C 93 % 13.88 C
1185 14-08-2016 02:40:00 14.9 C 93 % 13.78 C
1186 14-08-2016 02:45:00 14.8 C 93 % 13.68 C
1187 14-08-2016 02:50:00 14.8 C 94 % 13.84 C
1188 14-08-2016 02:55:00 14.8 C 94 % 13.84 C
1189 14-08-2016 03:00:00 14.8 C 94 % 13.84 C
1190 14-08-2016 03:05:00 14.8 C 94 % 13.84 C
1191 14-08-2016 03:10:00 14.7 C 94 % 13.74 C
1192 14-08-2016 03:15:00 14.6 C 94 % 13.65 C
1193 14-08-2016 03:20:00 14.6 C 94 % 13.65 C
1194 14-08-2016 03:25:00 14.6 C 94 % 13.65 C
1195 14-08-2016 03:30:00 14.6 C 94 % 13.65 C
1196 14-08-2016 03:35:00 14.6 C 94 % 13.65 C
1197 14-08-2016 03:40:00 14.5 C 94 % 13.55 C
1198 14-08-2016 03:45:00 14.4 C 94 % 13.45 C
1199 14-08-2016 03:50:00 14.4 C 94 % 13.45 C
1200 14-08-2016 03:55:00 14.4 C 94 % 13.45 C
Sensor: Nr:Datum:Temp:Feuchte:Taupunkt:
Aussen-T/F 1201 14-08-2016 04:00:00 14.3 C 94 % 13.35 C
1202 14-08-2016 04:05:00 14.3 C 95 % 13.51 C
1203 14-08-2016 04:10:00 14.3 C 95 % 13.51 C
1204 14-08-2016 04:15:00 14.2 C 94 % 13.25 C
1205 14-08-2016 04:20:00 14.1 C 94 % 13.15 C
1206 14-08-2016 04:25:00 14 C 94 % 13.05 C
1207 14-08-2016 04:30:00 14 C 95 % 13.21 C
1208 14-08-2016 04:35:00 14 C 95 % 13.21 C
1209 14-08-2016 04:40:00 14 C 95 % 13.21 C
1210 14-08-2016 04:45:00 14 C 95 % 13.21 C
1211 14-08-2016 04:50:00 13.9 C 95 % 13.11 C
1212 14-08-2016 04:55:00 13.9 C 95 % 13.11 C
1213 14-08-2016 05:00:00 13.9 C 95 % 13.11 C
1214 14-08-2016 05:05:00 13.9 C 95 % 13.11 C
1215 14-08-2016 05:10:00 13.9 C 95 % 13.11 C
1216 14-08-2016 05:15:00 13.9 C 95 % 13.11 C
1217 14-08-2016 05:20:00 13.9 C 95 % 13.11 C
1218 14-08-2016 05:25:00 14 C 96 % 13.37 C
1219 14-08-2016 05:30:00 14 C 95 % 13.21 C
1220 14-08-2016 05:35:00 13.9 C 95 % 13.11 C
1221 14-08-2016 05:40:00 13.9 C 95 % 13.11 C
1222 14-08-2016 05:45:00 13.9 C 95 % 13.11 C
1223 14-08-2016 05:50:00 13.8 C 95 % 13.01 C
1224 14-08-2016 05:55:00 13.8 C 95 % 13.01 C
1225 14-08-2016 06:00:00 13.7 C 95 % 12.91 C
Sensor: Nr:Datum:Temp:Feuchte:Taupunkt:
Aussen-T/F 1226 14-08-2016 06:05:00 13.6 C 95 % 12.81 C
1227 14-08-2016 06:10:00 13.6 C 95 % 12.81 C
1228 14-08-2016 06:15:00 13.4 C 95 % 12.62 C
1229 14-08-2016 06:20:00 13.5 C 95 % 12.72 C
1230 14-08-2016 06:25:00 13.6 C 95 % 12.81 C
1231 14-08-2016 06:30:00 13.6 C 95 % 12.81 C
1232 14-08-2016 06:35:00 13.6 C 95 % 12.81 C
1233 14-08-2016 06:40:00 13.5 C 95 % 12.72 C
1234 14-08-2016 06:45:00 13.6 C 96 % 12.97 C
1235 14-08-2016 06:50:00 13.6 C 96 % 12.97 C
1236 14-08-2016 06:55:00 13.6 C 96 % 12.97 C
1237 14-08-2016 07:00:00 13.7 C 96 % 13.07 C
1238 14-08-2016 07:05:00 13.8 C 96 % 13.17 C
1239 14-08-2016 07:10:00 13.9 C 96 % 13.27 C
1240 14-08-2016 07:15:00 13.9 C 96 % 13.27 C
1241 14-08-2016 07:20:00 14 C 96 % 13.37 C
1242 14-08-2016 07:25:00 14.1 C 96 % 13.47 C
1243 14-08-2016 07:30:00 14.1 C 96 % 13.47 C
1244 14-08-2016 07:35:00 14.1 C 96 % 13.47 C
1245 14-08-2016 07:40:00 14.2 C 96 % 13.57 C
1246 14-08-2016 07:45:00 14.2 C 96 % 13.57 C
1247 14-08-2016 07:50:00 14.2 C 96 % 13.57 C
1248 14-08-2016 07:55:00 14.2 C 96 % 13.57 C
1249 14-08-2016 08:00:00 14.3 C 96 % 13.67 C
1250 14-08-2016 08:05:00 14.3 C 96 % 13.67 C
Sensor: Nr:Datum:Temp:Feuchte:Taupunkt:
Aussen-T/F 1251 14-08-2016 08:10:00 14.3 C 96 % 13.67 C
1252 14-08-2016 08:15:00 14.4 C 96 % 13.77 C
1253 14-08-2016 08:20:00 14.4 C 96 % 13.77 C
1254 14-08-2016 08:25:00 14.4 C 96 % 13.77 C
1255 14-08-2016 08:30:00 14.4 C 96 % 13.77 C
1256 14-08-2016 08:35:00 14.5 C 96 % 13.87 C
1257 14-08-2016 08:40:00 14.6 C 96 % 13.97 C
1258 14-08-2016 08:45:00 14.7 C 96 % 14.07 C
1259 14-08-2016 08:50:00 14.7 C 96 % 14.07 C
1260 14-08-2016 08:55:00 14.8 C 96 % 14.17 C
1261 14-08-2016 09:00:00 14.8 C 96 % 14.17 C
1262 14-08-2016 09:05:00 14.9 C 96 % 14.27 C
1263 14-08-2016 09:10:00 14.9 C 96 % 14.27 C
1264 14-08-2016 09:15:00 15 C 96 % 14.37 C
1265 14-08-2016 09:20:00 15.1 C 96 % 14.47 C
1266 14-08-2016 09:25:00 15.2 C 96 % 14.57 C
1267 14-08-2016 09:30:00 15.3 C 96 % 14.67 C
1268 14-08-2016 09:35:00 15.4 C 96 % 14.77 C
1269 14-08-2016 09:40:00 15.6 C 96 % 14.96 C
1270 14-08-2016 09:45:00 15.7 C 96 % 15.06 C
1271 14-08-2016 09:50:00 15.8 C 96 % 15.16 C
1272 14-08-2016 09:55:00 15.9 C 96 % 15.26 C
1273 14-08-2016 10:00:00 16.1 C 96 % 15.46 C
1274 14-08-2016 10:05:00 16.2 C 96 % 15.56 C
1275 14-08-2016 10:10:00 16.4 C 95 % 15.6 C
Sensor: Nr:Datum:Temp:Feuchte:Taupunkt:
Aussen-T/F 1276 14-08-2016 10:15:00 16.6 C 95 % 15.8 C
1277 14-08-2016 10:20:00 16.7 C 95 % 15.9 C
1278 14-08-2016 10:25:00 16.8 C 95 % 15.99 C
1279 14-08-2016 10:30:00 16.9 C 94 % 15.93 C
1280 14-08-2016 10:35:00 17.2 C 94 % 16.23 C
1281 14-08-2016 10:40:00 17.3 C 94 % 16.33 C
1282 14-08-2016 10:45:00 17.6 C 93 % 16.45 C
1283 14-08-2016 10:50:00 17.8 C 93 % 16.65 C
1284 14-08-2016 10:55:00 17.9 C 92 % 16.58 C
1285 14-08-2016 11:00:00 18.1 C 92 % 16.78 C
1286 14-08-2016 11:05:00 18.2 C 92 % 16.88 C
1287 14-08-2016 11:10:00 18.3 C 92 % 16.98 C
1288 14-08-2016 11:15:00 18.4 C 92 % 17.08 C
1289 14-08-2016 11:20:00 18.6 C 90 % 16.93 C
1290 14-08-2016 11:25:00 18.9 C 90 % 17.22 C
1291 14-08-2016 11:30:00 19.1 C 90 % 17.42 C
1292 14-08-2016 11:35:00 19.2 C 90 % 17.52 C
1293 14-08-2016 11:40:00 19.3 C 90 % 17.62 C
1294 14-08-2016 11:45:00 19.3 C 90 % 17.62 C
1295 14-08-2016 11:50:00 19.3 C 89 % 17.44 C
1296 14-08-2016 11:55:00 19.6 C 88 % 17.56 C
1297 14-08-2016 12:00:00 19.8 C 87 % 17.57 C
1298 14-08-2016 12:05:00 20.1 C 85 % 17.5 C
1299 14-08-2016 12:10:00 20.3 C 82 % 17.13 C
1300 14-08-2016 12:15:00 20.6 C 82 % 17.42 C
Sensor: Nr:Datum:Temp:Feuchte:Taupunkt:
Aussen-T/F 1301 14-08-2016 12:20:00 20.8 C 82 % 17.61 C
1302 14-08-2016 12:25:00 21.1 C 79 % 17.32 C
1303 14-08-2016 12:30:00 21.3 C 78 % 17.31 C
1304 14-08-2016 12:35:00 21.6 C 78 % 17.6 C
1305 14-08-2016 12:40:00 21.7 C 73 % 16.65 C
1306 14-08-2016 12:45:00 21.9 C 75 % 17.27 C
1307 14-08-2016 12:50:00 22.2 C 74 % 17.34 C
1308 14-08-2016 12:55:00 22.4 C 73 % 17.32 C
1309 14-08-2016 13:00:00 22.5 C 72 % 17.2 C
1310 14-08-2016 13:05:00 22.6 C 74 % 17.73 C
1311 14-08-2016 13:10:00 22.7 C 77 % 18.46 C
1312 14-08-2016 13:15:00 22.6 C 77 % 18.36 C
1313 14-08-2016 13:20:00 22.3 C 78 % 18.28 C
1314 14-08-2016 13:25:00 22.1 C 77 % 17.88 C
1315 14-08-2016 13:30:00 22 C 77 % 17.78 C
1316 14-08-2016 13:35:00 22.2 C 73 % 17.13 C
1317 14-08-2016 13:40:00 22.5 C 72 % 17.2 C
1318 14-08-2016 13:45:00 22.8 C 70 % 17.04 C
1319 14-08-2016 13:50:00 23.4 C 68 % 17.16 C
1320 14-08-2016 13:55:00 23.7 C 64 % 16.49 C
1321 14-08-2016 14:00:00 23.8 C 64 % 16.58 C
1322 14-08-2016 14:05:00 23.8 C 66 % 17.07 C
1323 14-08-2016 14:10:00 23.8 C 67 % 17.3 C
1324 14-08-2016 14:15:00 23.7 C 68 % 17.44 C
1325 14-08-2016 14:20:00 23.7 C 68 % 17.44 C
Sensor: Nr:Datum:Temp:Feuchte:Taupunkt:
Aussen-T/F 1326 14-08-2016 14:25:00 23.7 C 66 % 16.97 C
1327 14-08-2016 14:30:00 23.8 C 65 % 16.83 C
1328 14-08-2016 14:35:00 23.8 C 66 % 17.07 C
1329 14-08-2016 14:40:00 23.9 C 66 % 17.16 C
1330 14-08-2016 14:45:00 23.8 C 71 % 18.22 C
1331 14-08-2016 14:50:00 23.8 C 66 % 17.07 C
1332 14-08-2016 14:55:00 23.9 C 64 % 16.68 C
1333 14-08-2016 15:00:00 24.1 C 64 % 16.86 C
1334 14-08-2016 15:05:00 24.1 C 68 % 17.82 C
1335 14-08-2016 15:10:00 24.2 C 65 % 17.2 C
1336 14-08-2016 15:15:00 24.3 C 64 % 17.05 C
1337 14-08-2016 15:20:00 24.5 C 64 % 17.24 C
1338 14-08-2016 15:25:00 24.7 C 60 % 16.41 C
1339 14-08-2016 15:30:00 24.9 C 60 % 16.6 C
1340 14-08-2016 15:35:00 25 C 60 % 16.7 C
1341 14-08-2016 15:40:00 24.8 C 62 % 17.02 C
1342 14-08-2016 15:45:00 24.8 C 64 % 17.53 C
1343 14-08-2016 15:50:00 25 C 62 % 17.21 C
1344 14-08-2016 15:55:00 25.2 C 61 % 17.14 C
1345 14-08-2016 16:00:00 25.5 C 58 % 16.63 C
1346 14-08-2016 16:05:00 25.8 C 57 % 16.64 C
1347 14-08-2016 16:10:00 25.8 C 55 % 16.07 C
1348 14-08-2016 16:15:00 25.6 C 58 % 16.72 C
1349 14-08-2016 16:20:00 25.7 C 58 % 16.82 C
1350 14-08-2016 16:25:00 26.1 C 57 % 16.92 C
Sensor: Nr:Datum:Temp:Feuchte:Taupunkt:
Aussen-T/F 1351 14-08-2016 16:30:00 26.5 C 55 % 16.72 C
1352 14-08-2016 16:35:00 26.6 C 58 % 17.66 C
1353 14-08-2016 16:40:00 26.8 C 52 % 16.12 C
1354 14-08-2016 16:45:00 26.6 C 53 % 16.23 C
1355 14-08-2016 16:50:00 26.3 C 54 % 16.25 C
1356 14-08-2016 16:55:00 26.2 C 60 % 17.82 C
1357 14-08-2016 17:00:00 26.3 C 54 % 16.25 C
1358 14-08-2016 17:05:00 26.1 C 53 % 15.77 C
1359 14-08-2016 17:10:00 26 C 55 % 16.26 C
1360 14-08-2016 17:15:00 26.2 C 54 % 16.16 C
1361 14-08-2016 17:20:00 26.3 C 54 % 16.25 C
1362 14-08-2016 17:25:00 26.6 C 52 % 15.94 C
1363 14-08-2016 17:30:00 26.6 C 51 % 15.63 C
1364 14-08-2016 17:35:00 26.4 C 51 % 15.45 C
1365 14-08-2016 17:40:00 26.2 C 55 % 16.45 C
1366 14-08-2016 17:45:00 26.2 C 53 % 15.87 C
1367 14-08-2016 17:50:00 26.2 C 53 % 15.87 C
1368 14-08-2016 17:55:00 25.8 C 53 % 15.5 C
1369 14-08-2016 18:00:00 25.7 C 54 % 15.7 C
1370 14-08-2016 18:05:00 25.7 C 53 % 15.4 C
1371 14-08-2016 18:10:00 25.9 C 52 % 15.29 C
1372 14-08-2016 18:15:00 26.2 C 52 % 15.57 C
1373 14-08-2016 18:20:00 26.4 C 50 % 15.14 C
1374 14-08-2016 18:25:00 26.4 C 51 % 15.45 C
1375 14-08-2016 18:30:00 26.2 C 50 % 14.96 C
Sensor: Nr:Datum:Temp:Feuchte:Taupunkt:
Aussen-T/F 1376 14-08-2016 18:35:00 25.8 C 51 % 14.9 C
1377 14-08-2016 18:40:00 25.6 C 53 % 15.31 C
1378 14-08-2016 18:45:00 25.3 C 52 % 14.74 C
1379 14-08-2016 18:50:00 25.1 C 53 % 14.85 C
1380 14-08-2016 18:55:00 25 C 55 % 15.33 C
1381 14-08-2016 19:00:00 25.1 C 54 % 15.14 C
1382 14-08-2016 19:05:00 25.1 C 54 % 15.14 C
1383 14-08-2016 19:10:00 24.8 C 55 % 15.15 C
1384 14-08-2016 19:15:00 24.6 C 57 % 15.52 C
1385 14-08-2016 19:20:00 24.4 C 57 % 15.33 C
1386 14-08-2016 19:25:00 24.3 C 57 % 15.24 C
1387 14-08-2016 19:30:00 24.1 C 58 % 15.32 C
1388 14-08-2016 19:35:00 24 C 59 % 15.5 C
1389 14-08-2016 19:40:00 23.9 C 59 % 15.4 C
1390 14-08-2016 19:45:00 23.9 C 60 % 15.66 C
1391 14-08-2016 19:50:00 23.8 C 59 % 15.31 C
1392 14-08-2016 19:55:00 23.8 C 60 % 15.57 C
1393 14-08-2016 20:00:00 23.8 C 59 % 15.31 C
1394 14-08-2016 20:05:00 23.8 C 59 % 15.31 C
1395 14-08-2016 20:10:00 23.7 C 60 % 15.48 C
1396 14-08-2016 20:15:00 23.7 C 60 % 15.48 C
1397 14-08-2016 20:20:00 23.6 C 61 % 15.64 C
1398 14-08-2016 20:25:00 23.4 C 62 % 15.71 C
1399 14-08-2016 20:30:00 23.3 C 63 % 15.86 C
1400 14-08-2016 20:35:00 23.2 C 63 % 15.77 C
Sensor: Nr:Datum:Temp:Feuchte:Taupunkt:
Aussen-T/F 1401 14-08-2016 20:40:00 23 C 63 % 15.58 C
1402 14-08-2016 20:45:00 22.9 C 64 % 15.73 C
1403 14-08-2016 20:50:00 22.8 C 65 % 15.88 C
1404 14-08-2016 20:55:00 22.6 C 66 % 15.93 C
1405 14-08-2016 21:00:00 22.4 C 66 % 15.74 C
1406 14-08-2016 21:05:00 22.3 C 67 % 15.88 C
1407 14-08-2016 21:10:00 22.1 C 69 % 16.15 C
1408 14-08-2016 21:15:00 21.8 C 69 % 15.86 C
1409 14-08-2016 21:20:00 21.6 C 71 % 16.12 C
1410 14-08-2016 21:25:00 21.2 C 73 % 16.17 C
1411 14-08-2016 21:30:00 20.8 C 74 % 16 C
1412 14-08-2016 21:35:00 20.4 C 75 % 15.82 C
1413 14-08-2016 21:40:00 20.1 C 77 % 15.94 C
1414 14-08-2016 21:45:00 19.7 C 78 % 15.76 C
1415 14-08-2016 21:50:00 19.5 C 80 % 15.96 C
1416 14-08-2016 21:55:00 19.4 C 80 % 15.86 C
1417 14-08-2016 22:00:00 19.3 C 80 % 15.76 C
1418 14-08-2016 22:05:00 19.1 C 81 % 15.76 C
1419 14-08-2016 22:10:00 19 C 81 % 15.67 C
1420 14-08-2016 22:15:00 18.9 C 81 % 15.57 C
1421 14-08-2016 22:20:00 18.8 C 82 % 15.66 C
1422 14-08-2016 22:25:00 18.7 C 82 % 15.57 C
1423 14-08-2016 22:30:00 18.5 C 83 % 15.56 C
1424 14-08-2016 22:35:00 18.3 C 83 % 15.36 C
1425 14-08-2016 22:40:00 18.2 C 84 % 15.45 C
Sensor: Nr:Datum:Temp:Feuchte:Taupunkt:
Aussen-T/F 1426 14-08-2016 22:45:00 18.1 C 84 % 15.35 C
1427 14-08-2016 22:50:00 17.9 C 85 % 15.34 C
1428 14-08-2016 22:55:00 17.9 C 85 % 15.34 C
1429 14-08-2016 23:00:00 17.8 C 86 % 15.43 C
1430 14-08-2016 23:05:00 17.8 C 86 % 15.43 C
1431 14-08-2016 23:10:00 17.7 C 86 % 15.33 C
1432 14-08-2016 23:15:00 17.7 C 86 % 15.33 C
1433 14-08-2016 23:20:00 17.7 C 86 % 15.33 C
1434 14-08-2016 23:25:00 17.6 C 86 % 15.23 C
1435 14-08-2016 23:30:00 17.6 C 86 % 15.23 C
1436 14-08-2016 23:35:00 17.6 C 86 % 15.23 C
1437 14-08-2016 23:40:00 17.5 C 86 % 15.13 C
1438 14-08-2016 23:45:00 17.5 C 87 % 15.31 C
1439 14-08-2016 23:50:00 17.5 C 87 % 15.31 C
1440 14-08-2016 23:55:00 17.5 C 87 % 15.31 C

Legende:
   Min
   Max


Maximal/Minimal-Werte vom 10.08.2016 - 14.08.2016

Sensor Min Max Avg
Temp
(Aussen-T/F)
6.8 °C
11-08-2016  06:55:00
30 °C
13-08-2016  17:15:00
16.47 °C
Feuchte
(Aussen-T/F)
35 %
13-08-2016  18:30:00
96 %
11-08-2016  07:45:00
82.66 %
Taupunkt
(Aussen-T/F)
6.06 C
11-08-2016  06:55:00
19.76 C
13-08-2016  14:55:00
13.17 C

Die Daten stammen von einer Davis Vantage Pro 2 Wetter-Station und werden unter Linux mit der Software wview2wettercgi und aufbereitet. Alle Angaben erfolgen ohne Gewähr für ihre Vollständigkeit oder Richtigkeit.
Kontakt: Rainer Krienke krienke@uni-koblenz.de . Meine Webseiten an der Uni Koblenz oder privat.
Version: $Revision: 0.78 $